<?xml version="1.0" encoding="UTF-8" standalone="no" ?>
<gpx xmlns="http://www.topografix.com/GPX/1/1" xmlns:xsi="http://www.w3.org/2001/XMLSchema-instance" xsi:schemaLocation="http://www.topografix.com/GPX/1/1 http://www.topografix.com/GPX/1/1/gpx.xsd" version="1.1" creator="VisuGPX - https://www.visugpx.com">
  <metadata>
    <name>20220630_080629.gpx</name>
  </metadata>
  <trk>
    <name><![CDATA[20220630_080629.gpx]]></name>
    <trkseg>
      <trkpt lat="45.24905" lon="5.62622">
        <ele>221.04408</ele>
        <time>2022-06-30T06:06:41Z</time>
      </trkpt>
      <trkpt lat="45.24922" lon="5.62608">
        <ele>220.79485</ele>
        <time>2022-06-30T06:06:51Z</time>
      </trkpt>
      <trkpt lat="45.24964" lon="5.62568">
        <ele>219.90924</ele>
        <time>2022-06-30T06:07:01Z</time>
      </trkpt>
      <trkpt lat="45.25026" lon="5.62536">
        <ele>214.36763</ele>
        <time>2022-06-30T06:07:11Z</time>
      </trkpt>
      <trkpt lat="45.25071" lon="5.62473">
        <ele>208.31693</ele>
        <time>2022-06-30T06:07:21Z</time>
      </trkpt>
      <trkpt lat="45.25136" lon="5.62399">
        <ele>201.79958</ele>
        <time>2022-06-30T06:07:31Z</time>
      </trkpt>
      <trkpt lat="45.2525" lon="5.62364">
        <ele>193.24586</ele>
        <time>2022-06-30T06:07:41Z</time>
      </trkpt>
      <trkpt lat="45.25338" lon="5.62345">
        <ele>186.50577</ele>
        <time>2022-06-30T06:07:51Z</time>
      </trkpt>
      <trkpt lat="45.25427" lon="5.62344">
        <ele>184.9573</ele>
        <time>2022-06-30T06:08:01Z</time>
      </trkpt>
      <trkpt lat="45.25484" lon="5.62319">
        <ele>185.28079</ele>
        <time>2022-06-30T06:08:11Z</time>
      </trkpt>
      <trkpt lat="45.25532" lon="5.62287">
        <ele>183.66869</ele>
        <time>2022-06-30T06:08:21Z</time>
      </trkpt>
      <trkpt lat="45.25575" lon="5.62238">
        <ele>184.46944</ele>
        <time>2022-06-30T06:08:31Z</time>
      </trkpt>
      <trkpt lat="45.256" lon="5.62188">
        <ele>183.8967</ele>
        <time>2022-06-30T06:08:41Z</time>
      </trkpt>
      <trkpt lat="45.25644" lon="5.62124">
        <ele>183.72173</ele>
        <time>2022-06-30T06:08:51Z</time>
      </trkpt>
      <trkpt lat="45.25697" lon="5.62072">
        <ele>184.31033</ele>
        <time>2022-06-30T06:09:01Z</time>
      </trkpt>
      <trkpt lat="45.25729" lon="5.6204">
        <ele>185.14822</ele>
        <time>2022-06-30T06:09:11Z</time>
      </trkpt>
      <trkpt lat="45.25777" lon="5.6202">
        <ele>183.42474</ele>
        <time>2022-06-30T06:09:21Z</time>
      </trkpt>
      <trkpt lat="45.25819" lon="5.6199">
        <ele>184.79822</ele>
        <time>2022-06-30T06:09:31Z</time>
      </trkpt>
      <trkpt lat="45.25857" lon="5.6197">
        <ele>185.21716</ele>
        <time>2022-06-30T06:09:41Z</time>
      </trkpt>
      <trkpt lat="45.25911" lon="5.61959">
        <ele>183.84369</ele>
        <time>2022-06-30T06:09:51Z</time>
      </trkpt>
      <trkpt lat="45.25972" lon="5.61947">
        <ele>184.99443</ele>
        <time>2022-06-30T06:10:01Z</time>
      </trkpt>
      <trkpt lat="45.2602" lon="5.61933">
        <ele>183.37703</ele>
        <time>2022-06-30T06:10:11Z</time>
      </trkpt>
      <trkpt lat="45.26069" lon="5.6191">
        <ele>184.7611</ele>
        <time>2022-06-30T06:10:21Z</time>
      </trkpt>
      <trkpt lat="45.26106" lon="5.61869">
        <ele>184.2361</ele>
        <time>2022-06-30T06:10:31Z</time>
      </trkpt>
      <trkpt lat="45.2612" lon="5.61819">
        <ele>183.6952</ele>
        <time>2022-06-30T06:10:41Z</time>
      </trkpt>
      <trkpt lat="45.26161" lon="5.61793">
        <ele>185.58835</ele>
        <time>2022-06-30T06:10:51Z</time>
      </trkpt>
      <trkpt lat="45.26202" lon="5.61771">
        <ele>184.44823</ele>
        <time>2022-06-30T06:11:01Z</time>
      </trkpt>
      <trkpt lat="45.26268" lon="5.61757">
        <ele>184.4164</ele>
        <time>2022-06-30T06:11:11Z</time>
      </trkpt>
      <trkpt lat="45.26317" lon="5.61755">
        <ele>184.80882</ele>
        <time>2022-06-30T06:11:21Z</time>
      </trkpt>
      <trkpt lat="45.26378" lon="5.61748">
        <ele>184.2414</ele>
        <time>2022-06-30T06:11:31Z</time>
      </trkpt>
      <trkpt lat="45.26419" lon="5.61728">
        <ele>184.37398</ele>
        <time>2022-06-30T06:11:41Z</time>
      </trkpt>
      <trkpt lat="45.26479" lon="5.61708">
        <ele>185.32852</ele>
        <time>2022-06-30T06:11:51Z</time>
      </trkpt>
      <trkpt lat="45.26518" lon="5.61711">
        <ele>186.44745</ele>
        <time>2022-06-30T06:12:01Z</time>
      </trkpt>
      <trkpt lat="45.26576" lon="5.61707">
        <ele>185.47699</ele>
        <time>2022-06-30T06:12:11Z</time>
      </trkpt>
      <trkpt lat="45.26626" lon="5.61681">
        <ele>185.56715</ele>
        <time>2022-06-30T06:12:21Z</time>
      </trkpt>
      <trkpt lat="45.26682" lon="5.61669">
        <ele>185.4823</ele>
        <time>2022-06-30T06:12:31Z</time>
      </trkpt>
      <trkpt lat="45.2674" lon="5.61641">
        <ele>184.45352</ele>
        <time>2022-06-30T06:12:41Z</time>
      </trkpt>
      <trkpt lat="45.2677" lon="5.61672">
        <ele>185.51411</ele>
        <time>2022-06-30T06:12:51Z</time>
      </trkpt>
      <trkpt lat="45.26819" lon="5.61682">
        <ele>184.0664</ele>
        <time>2022-06-30T06:13:01Z</time>
      </trkpt>
      <trkpt lat="45.26881" lon="5.61691">
        <ele>184.0505</ele>
        <time>2022-06-30T06:13:11Z</time>
      </trkpt>
      <trkpt lat="45.26939" lon="5.61724">
        <ele>185.77397</ele>
        <time>2022-06-30T06:13:21Z</time>
      </trkpt>
      <trkpt lat="45.26965" lon="5.61737">
        <ele>186.22472</ele>
        <time>2022-06-30T06:13:31Z</time>
      </trkpt>
      <trkpt lat="45.26992" lon="5.61693">
        <ele>188.57924</ele>
        <time>2022-06-30T06:13:41Z</time>
      </trkpt>
      <trkpt lat="45.26996" lon="5.61641">
        <ele>191.05574</ele>
        <time>2022-06-30T06:13:51Z</time>
      </trkpt>
      <trkpt lat="45.26996" lon="5.61611">
        <ele>193.59056</ele>
        <time>2022-06-30T06:14:01Z</time>
      </trkpt>
      <trkpt lat="45.26982" lon="5.61573">
        <ele>196.79355</ele>
        <time>2022-06-30T06:14:11Z</time>
      </trkpt>
      <trkpt lat="45.26971" lon="5.61547">
        <ele>200.03368</ele>
        <time>2022-06-30T06:14:21Z</time>
      </trkpt>
      <trkpt lat="45.26974" lon="5.61505">
        <ele>200.86624</ele>
        <time>2022-06-30T06:14:31Z</time>
      </trkpt>
      <trkpt lat="45.26972" lon="5.61467">
        <ele>205.02377</ele>
        <time>2022-06-30T06:14:41Z</time>
      </trkpt>
      <trkpt lat="45.26975" lon="5.61443">
        <ele>207.22452</ele>
        <time>2022-06-30T06:14:51Z</time>
      </trkpt>
      <trkpt lat="45.26999" lon="5.61422">
        <ele>208.70404</ele>
        <time>2022-06-30T06:15:01Z</time>
      </trkpt>
      <trkpt lat="45.27029" lon="5.61393">
        <ele>209.37222</ele>
        <time>2022-06-30T06:15:11Z</time>
      </trkpt>
      <trkpt lat="45.27035" lon="5.61335">
        <ele>207.94572</ele>
        <time>2022-06-30T06:15:21Z</time>
      </trkpt>
      <trkpt lat="45.2709" lon="5.61327">
        <ele>210.27374</ele>
        <time>2022-06-30T06:15:31Z</time>
      </trkpt>
      <trkpt lat="45.27118" lon="5.61317">
        <ele>214.00172</ele>
        <time>2022-06-30T06:15:41Z</time>
      </trkpt>
      <trkpt lat="45.27122" lon="5.61334">
        <ele>217.23123</ele>
        <time>2022-06-30T06:15:51Z</time>
      </trkpt>
      <trkpt lat="45.27143" lon="5.61333">
        <ele>218.85394</ele>
        <time>2022-06-30T06:16:01Z</time>
      </trkpt>
      <trkpt lat="45.27166" lon="5.61308">
        <ele>219.86682</ele>
        <time>2022-06-30T06:16:11Z</time>
      </trkpt>
      <trkpt lat="45.27178" lon="5.61294">
        <ele>221.50014</ele>
        <time>2022-06-30T06:16:21Z</time>
      </trkpt>
      <trkpt lat="45.272" lon="5.61277">
        <ele>223.81755</ele>
        <time>2022-06-30T06:16:31Z</time>
      </trkpt>
      <trkpt lat="45.27218" lon="5.61257">
        <ele>226.21448</ele>
        <time>2022-06-30T06:16:41Z</time>
      </trkpt>
      <trkpt lat="45.27225" lon="5.6124">
        <ele>227.75235</ele>
        <time>2022-06-30T06:16:51Z</time>
      </trkpt>
      <trkpt lat="45.27245" lon="5.61227">
        <ele>230.43565</ele>
        <time>2022-06-30T06:17:01Z</time>
      </trkpt>
      <trkpt lat="45.27263" lon="5.61195">
        <ele>233.00761</ele>
        <time>2022-06-30T06:17:11Z</time>
      </trkpt>
      <trkpt lat="45.27266" lon="5.61166">
        <ele>235.64317</ele>
        <time>2022-06-30T06:17:21Z</time>
      </trkpt>
      <trkpt lat="45.27278" lon="5.6114">
        <ele>238.11436</ele>
        <time>2022-06-30T06:17:31Z</time>
      </trkpt>
      <trkpt lat="45.27282" lon="5.61124">
        <ele>240.69691</ele>
        <time>2022-06-30T06:17:41Z</time>
      </trkpt>
      <trkpt lat="45.27294" lon="5.61111">
        <ele>244.45143</ele>
        <time>2022-06-30T06:17:51Z</time>
      </trkpt>
      <trkpt lat="45.27317" lon="5.61097">
        <ele>247.62791</ele>
        <time>2022-06-30T06:18:01Z</time>
      </trkpt>
      <trkpt lat="45.27343" lon="5.61098">
        <ele>251.47787</ele>
        <time>2022-06-30T06:18:11Z</time>
      </trkpt>
      <trkpt lat="45.27351" lon="5.61085">
        <ele>254.47406</ele>
        <time>2022-06-30T06:18:21Z</time>
      </trkpt>
      <trkpt lat="45.27366" lon="5.61062">
        <ele>257.2528</ele>
        <time>2022-06-30T06:18:31Z</time>
      </trkpt>
      <trkpt lat="45.27376" lon="5.61043">
        <ele>260.79523</ele>
        <time>2022-06-30T06:18:41Z</time>
      </trkpt>
      <trkpt lat="45.27386" lon="5.61023">
        <ele>264.57623</ele>
        <time>2022-06-30T06:18:51Z</time>
      </trkpt>
      <trkpt lat="45.27403" lon="5.61001">
        <ele>269.09436</ele>
        <time>2022-06-30T06:19:01Z</time>
      </trkpt>
      <trkpt lat="45.27409" lon="5.60979">
        <ele>272.88602</ele>
        <time>2022-06-30T06:19:11Z</time>
      </trkpt>
      <trkpt lat="45.27424" lon="5.60968">
        <ele>277.94507</ele>
        <time>2022-06-30T06:19:21Z</time>
      </trkpt>
      <trkpt lat="45.27437" lon="5.60951">
        <ele>282.845</ele>
        <time>2022-06-30T06:19:31Z</time>
      </trkpt>
      <trkpt lat="45.27451" lon="5.60939">
        <ele>287.1033</ele>
        <time>2022-06-30T06:19:41Z</time>
      </trkpt>
      <trkpt lat="45.27451" lon="5.60916">
        <ele>292.4381</ele>
        <time>2022-06-30T06:19:51Z</time>
      </trkpt>
      <trkpt lat="45.2745" lon="5.60898">
        <ele>296.60623</ele>
        <time>2022-06-30T06:20:01Z</time>
      </trkpt>
      <trkpt lat="45.2746" lon="5.60884">
        <ele>301.39484</ele>
        <time>2022-06-30T06:20:11Z</time>
      </trkpt>
      <trkpt lat="45.2746" lon="5.60851">
        <ele>304.31677</ele>
        <time>2022-06-30T06:20:21Z</time>
      </trkpt>
      <trkpt lat="45.27466" lon="5.60811">
        <ele>308.4319</ele>
        <time>2022-06-30T06:20:31Z</time>
      </trkpt>
      <trkpt lat="45.27485" lon="5.60788">
        <ele>312.49927</ele>
        <time>2022-06-30T06:20:41Z</time>
      </trkpt>
      <trkpt lat="45.27499" lon="5.60776">
        <ele>316.56665</ele>
        <time>2022-06-30T06:20:51Z</time>
      </trkpt>
      <trkpt lat="45.27496" lon="5.60739">
        <ele>320.28934</ele>
        <time>2022-06-30T06:21:01Z</time>
      </trkpt>
      <trkpt lat="45.27504" lon="5.60738">
        <ele>324.7704</ele>
        <time>2022-06-30T06:21:11Z</time>
      </trkpt>
      <trkpt lat="45.27493" lon="5.60693">
        <ele>327.44305</ele>
        <time>2022-06-30T06:21:21Z</time>
      </trkpt>
      <trkpt lat="45.27468" lon="5.60665">
        <ele>328.037</ele>
        <time>2022-06-30T06:21:31Z</time>
      </trkpt>
      <trkpt lat="45.27472" lon="5.60654">
        <ele>328.7582</ele>
        <time>2022-06-30T06:21:41Z</time>
      </trkpt>
      <trkpt lat="45.27478" lon="5.60654">
        <ele>330.0097</ele>
        <time>2022-06-30T06:21:54Z</time>
      </trkpt>
      <trkpt lat="45.27465" lon="5.60635">
        <ele>333.1915</ele>
        <time>2022-06-30T06:22:33Z</time>
      </trkpt>
      <trkpt lat="45.27451" lon="5.6061">
        <ele>334.9521</ele>
        <time>2022-06-30T06:22:43Z</time>
      </trkpt>
      <trkpt lat="45.27433" lon="5.60577">
        <ele>337.6407</ele>
        <time>2022-06-30T06:22:53Z</time>
      </trkpt>
      <trkpt lat="45.27418" lon="5.60544">
        <ele>338.7596</ele>
        <time>2022-06-30T06:23:03Z</time>
      </trkpt>
      <trkpt lat="45.27406" lon="5.60506">
        <ele>341.5384</ele>
        <time>2022-06-30T06:23:17Z</time>
      </trkpt>
      <trkpt lat="45.27384" lon="5.60474">
        <ele>344.13153</ele>
        <time>2022-06-30T06:23:27Z</time>
      </trkpt>
      <trkpt lat="45.27361" lon="5.60476">
        <ele>345.26105</ele>
        <time>2022-06-30T06:23:37Z</time>
      </trkpt>
      <trkpt lat="45.27338" lon="5.60499">
        <ele>347.6103</ele>
        <time>2022-06-30T06:23:47Z</time>
      </trkpt>
      <trkpt lat="45.27313" lon="5.60513">
        <ele>350.23526</ele>
        <time>2022-06-30T06:23:57Z</time>
      </trkpt>
      <trkpt lat="45.2731" lon="5.60479">
        <ele>352.28223</ele>
        <time>2022-06-30T06:24:07Z</time>
      </trkpt>
      <trkpt lat="45.27307" lon="5.60453">
        <ele>353.6663</ele>
        <time>2022-06-30T06:24:17Z</time>
      </trkpt>
      <trkpt lat="45.27301" lon="5.60416">
        <ele>355.87234</ele>
        <time>2022-06-30T06:24:27Z</time>
      </trkpt>
      <trkpt lat="45.2729" lon="5.60383">
        <ele>358.00943</ele>
        <time>2022-06-30T06:24:37Z</time>
      </trkpt>
      <trkpt lat="45.27271" lon="5.60355">
        <ele>359.45184</ele>
        <time>2022-06-30T06:24:47Z</time>
      </trkpt>
      <trkpt lat="45.27263" lon="5.60323">
        <ele>361.8859</ele>
        <time>2022-06-30T06:24:57Z</time>
      </trkpt>
      <trkpt lat="45.2726" lon="5.60287">
        <ele>363.49802</ele>
        <time>2022-06-30T06:25:07Z</time>
      </trkpt>
      <trkpt lat="45.27269" lon="5.60255">
        <ele>365.64572</ele>
        <time>2022-06-30T06:25:17Z</time>
      </trkpt>
      <trkpt lat="45.27288" lon="5.60226">
        <ele>367.7828</ele>
        <time>2022-06-30T06:25:27Z</time>
      </trkpt>
      <trkpt lat="45.27288" lon="5.60205">
        <ele>369.83508</ele>
        <time>2022-06-30T06:25:37Z</time>
      </trkpt>
      <trkpt lat="45.27271" lon="5.60173">
        <ele>371.28278</ele>
        <time>2022-06-30T06:25:47Z</time>
      </trkpt>
      <trkpt lat="45.27266" lon="5.60147">
        <ele>373.6585</ele>
        <time>2022-06-30T06:25:57Z</time>
      </trkpt>
      <trkpt lat="45.27257" lon="5.60116">
        <ele>375.0267</ele>
        <time>2022-06-30T06:26:07Z</time>
      </trkpt>
      <trkpt lat="45.27237" lon="5.60089">
        <ele>377.23273</ele>
        <time>2022-06-30T06:26:17Z</time>
      </trkpt>
      <trkpt lat="45.2722" lon="5.60058">
        <ele>379.61908</ele>
        <time>2022-06-30T06:26:27Z</time>
      </trkpt>
      <trkpt lat="45.27224" lon="5.60026">
        <ele>381.30542</ele>
        <time>2022-06-30T06:26:37Z</time>
      </trkpt>
      <trkpt lat="45.27213" lon="5.6">
        <ele>382.99176</ele>
        <time>2022-06-30T06:26:47Z</time>
      </trkpt>
      <trkpt lat="45.27195" lon="5.59978">
        <ele>385.10767</ele>
        <time>2022-06-30T06:26:57Z</time>
      </trkpt>
      <trkpt lat="45.27177" lon="5.5995">
        <ele>386.67734</ele>
        <time>2022-06-30T06:27:07Z</time>
      </trkpt>
      <trkpt lat="45.27163" lon="5.59925">
        <ele>388.4114</ele>
        <time>2022-06-30T06:27:17Z</time>
      </trkpt>
      <trkpt lat="45.27148" lon="5.59897">
        <ele>390.30988</ele>
        <time>2022-06-30T06:27:27Z</time>
      </trkpt>
      <trkpt lat="45.2715" lon="5.59872">
        <ele>392.53183</ele>
        <time>2022-06-30T06:27:37Z</time>
      </trkpt>
      <trkpt lat="45.2713" lon="5.59843">
        <ele>393.9</ele>
        <time>2022-06-30T06:27:47Z</time>
      </trkpt>
      <trkpt lat="45.27104" lon="5.59824">
        <ele>394.92346</ele>
        <time>2022-06-30T06:27:57Z</time>
      </trkpt>
      <trkpt lat="45.27074" lon="5.59806">
        <ele>397.50073</ele>
        <time>2022-06-30T06:28:07Z</time>
      </trkpt>
      <trkpt lat="45.27041" lon="5.59783">
        <ele>398.7151</ele>
        <time>2022-06-30T06:28:17Z</time>
      </trkpt>
      <trkpt lat="45.27023" lon="5.59756">
        <ele>402.34763</ele>
        <time>2022-06-30T06:28:27Z</time>
      </trkpt>
      <trkpt lat="45.27007" lon="5.59733">
        <ele>404.63855</ele>
        <time>2022-06-30T06:28:37Z</time>
      </trkpt>
      <trkpt lat="45.26997" lon="5.59711">
        <ele>406.84457</ele>
        <time>2022-06-30T06:28:47Z</time>
      </trkpt>
      <trkpt lat="45.26991" lon="5.59688">
        <ele>407.87332</ele>
        <time>2022-06-30T06:28:57Z</time>
      </trkpt>
      <trkpt lat="45.26968" lon="5.59672">
        <ele>408.94452</ele>
        <time>2022-06-30T06:29:07Z</time>
      </trkpt>
      <trkpt lat="45.26955" lon="5.59642">
        <ele>410.98087</ele>
        <time>2022-06-30T06:29:17Z</time>
      </trkpt>
      <trkpt lat="45.26939" lon="5.59617">
        <ele>413.20282</ele>
        <time>2022-06-30T06:29:27Z</time>
      </trkpt>
      <trkpt lat="45.26914" lon="5.59605">
        <ele>413.3248</ele>
        <time>2022-06-30T06:29:37Z</time>
      </trkpt>
      <trkpt lat="45.26891" lon="5.59574">
        <ele>415.36646</ele>
        <time>2022-06-30T06:29:47Z</time>
      </trkpt>
      <trkpt lat="45.26875" lon="5.59545">
        <ele>417.0475</ele>
        <time>2022-06-30T06:29:57Z</time>
      </trkpt>
      <trkpt lat="45.26856" lon="5.5952">
        <ele>417.7581</ele>
        <time>2022-06-30T06:30:07Z</time>
      </trkpt>
      <trkpt lat="45.26838" lon="5.595">
        <ele>420.22928</ele>
        <time>2022-06-30T06:30:17Z</time>
      </trkpt>
      <trkpt lat="45.26824" lon="5.59471">
        <ele>423.17242</ele>
        <time>2022-06-30T06:30:27Z</time>
      </trkpt>
      <trkpt lat="45.26807" lon="5.59452">
        <ele>424.95953</ele>
        <time>2022-06-30T06:30:37Z</time>
      </trkpt>
      <trkpt lat="45.26786" lon="5.59431">
        <ele>427.09665</ele>
        <time>2022-06-30T06:30:47Z</time>
      </trkpt>
      <trkpt lat="45.26774" lon="5.59413">
        <ele>429.01102</ele>
        <time>2022-06-30T06:30:57Z</time>
      </trkpt>
      <trkpt lat="45.26757" lon="5.59392">
        <ele>431.8799</ele>
        <time>2022-06-30T06:31:07Z</time>
      </trkpt>
      <trkpt lat="45.26745" lon="5.59383">
        <ele>433.14734</ele>
        <time>2022-06-30T06:31:17Z</time>
      </trkpt>
      <trkpt lat="45.26733" lon="5.59356">
        <ele>435.11475</ele>
        <time>2022-06-30T06:31:27Z</time>
      </trkpt>
      <trkpt lat="45.26726" lon="5.59339">
        <ele>438.2594</ele>
        <time>2022-06-30T06:31:37Z</time>
      </trkpt>
      <trkpt lat="45.26715" lon="5.59315">
        <ele>440.48135</ele>
        <time>2022-06-30T06:31:47Z</time>
      </trkpt>
      <trkpt lat="45.26703" lon="5.59292">
        <ele>442.10406</ele>
        <time>2022-06-30T06:31:57Z</time>
      </trkpt>
      <trkpt lat="45.26686" lon="5.59273">
        <ele>443.54648</ele>
        <time>2022-06-30T06:32:07Z</time>
      </trkpt>
      <trkpt lat="45.26673" lon="5.59236">
        <ele>445.96466</ele>
        <time>2022-06-30T06:32:17Z</time>
      </trkpt>
      <trkpt lat="45.26662" lon="5.59215">
        <ele>448.58432</ele>
        <time>2022-06-30T06:32:27Z</time>
      </trkpt>
      <trkpt lat="45.2665" lon="5.59209">
        <ele>450.10095</ele>
        <time>2022-06-30T06:32:37Z</time>
      </trkpt>
      <trkpt lat="45.26637" lon="5.59186">
        <ele>453.3464</ele>
        <time>2022-06-30T06:32:47Z</time>
      </trkpt>
      <trkpt lat="45.26616" lon="5.59163">
        <ele>455.738</ele>
        <time>2022-06-30T06:32:57Z</time>
      </trkpt>
      <trkpt lat="45.26607" lon="5.59136">
        <ele>457.62057</ele>
        <time>2022-06-30T06:33:07Z</time>
      </trkpt>
      <trkpt lat="45.26598" lon="5.5912">
        <ele>459.54028</ele>
        <time>2022-06-30T06:33:17Z</time>
      </trkpt>
      <trkpt lat="45.26582" lon="5.59107">
        <ele>462.27658</ele>
        <time>2022-06-30T06:33:27Z</time>
      </trkpt>
      <trkpt lat="45.26565" lon="5.59073">
        <ele>465.02356</ele>
        <time>2022-06-30T06:33:37Z</time>
      </trkpt>
      <trkpt lat="45.26558" lon="5.59065">
        <ele>467.09702</ele>
        <time>2022-06-30T06:33:47Z</time>
      </trkpt>
      <trkpt lat="45.26546" lon="5.59046">
        <ele>469.19702</ele>
        <time>2022-06-30T06:33:57Z</time>
      </trkpt>
      <trkpt lat="45.26527" lon="5.59038">
        <ele>471.21744</ele>
        <time>2022-06-30T06:34:07Z</time>
      </trkpt>
      <trkpt lat="45.26502" lon="5.59019">
        <ele>474.22952</ele>
        <time>2022-06-30T06:34:17Z</time>
      </trkpt>
      <trkpt lat="45.2648" lon="5.59002">
        <ele>477.34238</ele>
        <time>2022-06-30T06:34:27Z</time>
      </trkpt>
      <trkpt lat="45.2647" lon="5.58993">
        <ele>478.40298</ele>
        <time>2022-06-30T06:34:37Z</time>
      </trkpt>
      <trkpt lat="45.26455" lon="5.58995">
        <ele>480.74158</ele>
        <time>2022-06-30T06:34:47Z</time>
      </trkpt>
      <trkpt lat="45.2644" lon="5.58968">
        <ele>483.2764</ele>
        <time>2022-06-30T06:34:57Z</time>
      </trkpt>
      <trkpt lat="45.26436" lon="5.58942">
        <ele>486.72333</ele>
        <time>2022-06-30T06:35:07Z</time>
      </trkpt>
      <trkpt lat="45.26437" lon="5.58914">
        <ele>489.2847</ele>
        <time>2022-06-30T06:35:17Z</time>
      </trkpt>
      <trkpt lat="45.26444" lon="5.58888">
        <ele>492.15887</ele>
        <time>2022-06-30T06:35:27Z</time>
      </trkpt>
      <trkpt lat="45.26448" lon="5.58856">
        <ele>493.98843</ele>
        <time>2022-06-30T06:35:37Z</time>
      </trkpt>
      <trkpt lat="45.26452" lon="5.58836">
        <ele>497.45657</ele>
        <time>2022-06-30T06:35:47Z</time>
      </trkpt>
      <trkpt lat="45.26452" lon="5.5881">
        <ele>499.127</ele>
        <time>2022-06-30T06:35:57Z</time>
      </trkpt>
      <trkpt lat="45.26444" lon="5.58787">
        <ele>501.2853</ele>
        <time>2022-06-30T06:36:07Z</time>
      </trkpt>
      <trkpt lat="45.26445" lon="5.58767">
        <ele>504.32922</ele>
        <time>2022-06-30T06:36:17Z</time>
      </trkpt>
      <trkpt lat="45.26445" lon="5.58737">
        <ele>507.00195</ele>
        <time>2022-06-30T06:36:27Z</time>
      </trkpt>
      <trkpt lat="45.26443" lon="5.58715">
        <ele>508.1262</ele>
        <time>2022-06-30T06:36:37Z</time>
      </trkpt>
      <trkpt lat="45.26431" lon="5.58675">
        <ele>511.5837</ele>
        <time>2022-06-30T06:36:47Z</time>
      </trkpt>
      <trkpt lat="45.26437" lon="5.58654">
        <ele>513.42914</ele>
        <time>2022-06-30T06:36:57Z</time>
      </trkpt>
      <trkpt lat="45.2646" lon="5.58597">
        <ele>515.24274</ele>
        <time>2022-06-30T06:37:07Z</time>
      </trkpt>
      <trkpt lat="45.26463" lon="5.58585">
        <ele>517.89954</ele>
        <time>2022-06-30T06:37:17Z</time>
      </trkpt>
      <trkpt lat="45.26445" lon="5.58568">
        <ele>520.38666</ele>
        <time>2022-06-30T06:37:27Z</time>
      </trkpt>
      <trkpt lat="45.26416" lon="5.58595">
        <ele>522.36993</ele>
        <time>2022-06-30T06:37:37Z</time>
      </trkpt>
      <trkpt lat="45.26406" lon="5.5859">
        <ele>524.751</ele>
        <time>2022-06-30T06:37:47Z</time>
      </trkpt>
      <trkpt lat="45.26386" lon="5.58564">
        <ele>528.4313</ele>
        <time>2022-06-30T06:37:57Z</time>
      </trkpt>
      <trkpt lat="45.2633" lon="5.58535">
        <ele>529.4919</ele>
        <time>2022-06-30T06:38:07Z</time>
      </trkpt>
      <trkpt lat="45.26331" lon="5.58524">
        <ele>532.5092</ele>
        <time>2022-06-30T06:38:17Z</time>
      </trkpt>
      <trkpt lat="45.26315" lon="5.58509">
        <ele>534.34937</ele>
        <time>2022-06-30T06:38:27Z</time>
      </trkpt>
      <trkpt lat="45.26311" lon="5.58481">
        <ele>537.213</ele>
        <time>2022-06-30T06:38:37Z</time>
      </trkpt>
      <trkpt lat="45.26297" lon="5.58457">
        <ele>539.313</ele>
        <time>2022-06-30T06:38:47Z</time>
      </trkpt>
      <trkpt lat="45.26288" lon="5.58433">
        <ele>541.62506</ele>
        <time>2022-06-30T06:38:57Z</time>
      </trkpt>
      <trkpt lat="45.26305" lon="5.58421">
        <ele>544.1917</ele>
        <time>2022-06-30T06:39:07Z</time>
      </trkpt>
      <trkpt lat="45.26302" lon="5.58397">
        <ele>545.6182</ele>
        <time>2022-06-30T06:39:17Z</time>
      </trkpt>
      <trkpt lat="45.26284" lon="5.58377">
        <ele>548.0629</ele>
        <time>2022-06-30T06:39:27Z</time>
      </trkpt>
      <trkpt lat="45.26303" lon="5.5835">
        <ele>550.9424</ele>
        <time>2022-06-30T06:39:37Z</time>
      </trkpt>
      <trkpt lat="45.2632" lon="5.58317">
        <ele>553.7901</ele>
        <time>2022-06-30T06:39:47Z</time>
      </trkpt>
      <trkpt lat="45.2631" lon="5.5829">
        <ele>555.30676</ele>
        <time>2022-06-30T06:39:57Z</time>
      </trkpt>
      <trkpt lat="45.26305" lon="5.58264">
        <ele>558.006</ele>
        <time>2022-06-30T06:40:07Z</time>
      </trkpt>
      <trkpt lat="45.26294" lon="5.58243">
        <ele>560.5196</ele>
        <time>2022-06-30T06:40:17Z</time>
      </trkpt>
      <trkpt lat="45.26279" lon="5.58222">
        <ele>562.32794</ele>
        <time>2022-06-30T06:40:27Z</time>
      </trkpt>
      <trkpt lat="45.26261" lon="5.58201">
        <ele>564.0991</ele>
        <time>2022-06-30T06:40:37Z</time>
      </trkpt>
      <trkpt lat="45.26249" lon="5.58193">
        <ele>566.33167</ele>
        <time>2022-06-30T06:40:47Z</time>
      </trkpt>
      <trkpt lat="45.26238" lon="5.58176">
        <ele>569.0998</ele>
        <time>2022-06-30T06:40:57Z</time>
      </trkpt>
      <trkpt lat="45.26252" lon="5.58156">
        <ele>570.57404</ele>
        <time>2022-06-30T06:41:07Z</time>
      </trkpt>
      <trkpt lat="45.26263" lon="5.5816">
        <ele>573.17255</ele>
        <time>2022-06-30T06:41:17Z</time>
      </trkpt>
      <trkpt lat="45.26282" lon="5.5816">
        <ele>575.27246</ele>
        <time>2022-06-30T06:41:29Z</time>
      </trkpt>
      <trkpt lat="45.26291" lon="5.58185">
        <ele>576.03613</ele>
        <time>2022-06-30T06:41:39Z</time>
      </trkpt>
      <trkpt lat="45.26323" lon="5.58189">
        <ele>579.5467</ele>
        <time>2022-06-30T06:41:49Z</time>
      </trkpt>
      <trkpt lat="45.26337" lon="5.5819">
        <ele>580.4535</ele>
        <time>2022-06-30T06:41:59Z</time>
      </trkpt>
      <trkpt lat="45.26357" lon="5.58194">
        <ele>583.38605</ele>
        <time>2022-06-30T06:42:09Z</time>
      </trkpt>
      <trkpt lat="45.26381" lon="5.58181">
        <ele>586.4724</ele>
        <time>2022-06-30T06:42:19Z</time>
      </trkpt>
      <trkpt lat="45.26382" lon="5.58154">
        <ele>588.19586</ele>
        <time>2022-06-30T06:42:29Z</time>
      </trkpt>
      <trkpt lat="45.26389" lon="5.58136">
        <ele>591.02765</ele>
        <time>2022-06-30T06:42:39Z</time>
      </trkpt>
      <trkpt lat="45.26385" lon="5.58103">
        <ele>593.0852</ele>
        <time>2022-06-30T06:42:49Z</time>
      </trkpt>
      <trkpt lat="45.26386" lon="5.5808">
        <ele>595.2753</ele>
        <time>2022-06-30T06:42:59Z</time>
      </trkpt>
      <trkpt lat="45.26385" lon="5.58054">
        <ele>597.2003</ele>
        <time>2022-06-30T06:43:09Z</time>
      </trkpt>
      <trkpt lat="45.26388" lon="5.58035">
        <ele>598.6851</ele>
        <time>2022-06-30T06:43:19Z</time>
      </trkpt>
      <trkpt lat="45.26384" lon="5.58009">
        <ele>600.6737</ele>
        <time>2022-06-30T06:43:29Z</time>
      </trkpt>
      <trkpt lat="45.26377" lon="5.5798">
        <ele>602.9806</ele>
        <time>2022-06-30T06:43:39Z</time>
      </trkpt>
      <trkpt lat="45.26372" lon="5.57957">
        <ele>605.4782</ele>
        <time>2022-06-30T06:43:49Z</time>
      </trkpt>
      <trkpt lat="45.26368" lon="5.57928">
        <ele>607.8169</ele>
        <time>2022-06-30T06:43:59Z</time>
      </trkpt>
      <trkpt lat="45.26363" lon="5.57903">
        <ele>609.9274</ele>
        <time>2022-06-30T06:44:09Z</time>
      </trkpt>
      <trkpt lat="45.26358" lon="5.57875">
        <ele>611.94257</ele>
        <time>2022-06-30T06:44:19Z</time>
      </trkpt>
      <trkpt lat="45.26358" lon="5.57846">
        <ele>614.51984</ele>
        <time>2022-06-30T06:44:29Z</time>
      </trkpt>
      <trkpt lat="45.26359" lon="5.57822">
        <ele>617.29865</ele>
        <time>2022-06-30T06:44:39Z</time>
      </trkpt>
      <trkpt lat="45.26356" lon="5.57791">
        <ele>619.35614</ele>
        <time>2022-06-30T06:44:49Z</time>
      </trkpt>
      <trkpt lat="45.26354" lon="5.57762">
        <ele>621.53564</ele>
        <time>2022-06-30T06:44:59Z</time>
      </trkpt>
      <trkpt lat="45.26347" lon="5.57741">
        <ele>623.869</ele>
        <time>2022-06-30T06:45:09Z</time>
      </trkpt>
      <trkpt lat="45.26334" lon="5.57723">
        <ele>626.12274</ele>
        <time>2022-06-30T06:45:19Z</time>
      </trkpt>
      <trkpt lat="45.26326" lon="5.57694">
        <ele>628.34467</ele>
        <time>2022-06-30T06:45:29Z</time>
      </trkpt>
      <trkpt lat="45.26313" lon="5.57671">
        <ele>630.328</ele>
        <time>2022-06-30T06:45:39Z</time>
      </trkpt>
      <trkpt lat="45.26309" lon="5.57642">
        <ele>631.5795</ele>
        <time>2022-06-30T06:45:49Z</time>
      </trkpt>
      <trkpt lat="45.2631" lon="5.57611">
        <ele>634.2682</ele>
        <time>2022-06-30T06:45:59Z</time>
      </trkpt>
      <trkpt lat="45.2631" lon="5.5757">
        <ele>636.0446</ele>
        <time>2022-06-30T06:46:09Z</time>
      </trkpt>
      <trkpt lat="45.26328" lon="5.57558">
        <ele>638.56354</ele>
        <time>2022-06-30T06:46:19Z</time>
      </trkpt>
      <trkpt lat="45.26339" lon="5.57534">
        <ele>640.1067</ele>
        <time>2022-06-30T06:46:29Z</time>
      </trkpt>
      <trkpt lat="45.26344" lon="5.57513">
        <ele>642.41876</ele>
        <time>2022-06-30T06:46:39Z</time>
      </trkpt>
      <trkpt lat="45.26339" lon="5.57477">
        <ele>644.34906</ele>
        <time>2022-06-30T06:46:49Z</time>
      </trkpt>
      <trkpt lat="45.26333" lon="5.57453">
        <ele>646.2582</ele>
        <time>2022-06-30T06:46:59Z</time>
      </trkpt>
      <trkpt lat="45.26323" lon="5.57429">
        <ele>648.1248</ele>
        <time>2022-06-30T06:47:09Z</time>
      </trkpt>
      <trkpt lat="45.26323" lon="5.57407">
        <ele>650.87177</ele>
        <time>2022-06-30T06:47:19Z</time>
      </trkpt>
      <trkpt lat="45.26335" lon="5.57417">
        <ele>653.59216</ele>
        <time>2022-06-30T06:47:29Z</time>
      </trkpt>
      <trkpt lat="45.26347" lon="5.57429">
        <ele>655.34216</ele>
        <time>2022-06-30T06:47:39Z</time>
      </trkpt>
      <trkpt lat="45.26372" lon="5.57445">
        <ele>656.5884</ele>
        <time>2022-06-30T06:47:49Z</time>
      </trkpt>
      <trkpt lat="45.26394" lon="5.57458">
        <ele>659.4944</ele>
        <time>2022-06-30T06:47:59Z</time>
      </trkpt>
      <trkpt lat="45.26416" lon="5.57462">
        <ele>660.6027</ele>
        <time>2022-06-30T06:48:09Z</time>
      </trkpt>
      <trkpt lat="45.26412" lon="5.57473">
        <ele>663.2171</ele>
        <time>2022-06-30T06:48:19Z</time>
      </trkpt>
      <trkpt lat="45.26445" lon="5.57479">
        <ele>665.27466</ele>
        <time>2022-06-30T06:48:29Z</time>
      </trkpt>
      <trkpt lat="45.26465" lon="5.57491">
        <ele>666.75946</ele>
        <time>2022-06-30T06:48:39Z</time>
      </trkpt>
      <trkpt lat="45.26485" lon="5.57513">
        <ele>668.50946</ele>
        <time>2022-06-30T06:48:49Z</time>
      </trkpt>
      <trkpt lat="45.26497" lon="5.57535">
        <ele>672.25867</ele>
        <time>2022-06-30T06:48:59Z</time>
      </trkpt>
      <trkpt lat="45.26512" lon="5.57557">
        <ele>673.7966</ele>
        <time>2022-06-30T06:49:09Z</time>
      </trkpt>
      <trkpt lat="45.26519" lon="5.57575">
        <ele>675.6473</ele>
        <time>2022-06-30T06:49:19Z</time>
      </trkpt>
      <trkpt lat="45.26528" lon="5.57599">
        <ele>677.8268</ele>
        <time>2022-06-30T06:49:29Z</time>
      </trkpt>
      <trkpt lat="45.26543" lon="5.57619">
        <ele>678.8132</ele>
        <time>2022-06-30T06:49:39Z</time>
      </trkpt>
      <trkpt lat="45.26568" lon="5.57633">
        <ele>681.5654</ele>
        <time>2022-06-30T06:49:49Z</time>
      </trkpt>
      <trkpt lat="45.26592" lon="5.57621">
        <ele>682.6419</ele>
        <time>2022-06-30T06:49:59Z</time>
      </trkpt>
      <trkpt lat="45.26607" lon="5.57626">
        <ele>684.2328</ele>
        <time>2022-06-30T06:50:09Z</time>
      </trkpt>
      <trkpt lat="45.26597" lon="5.57648">
        <ele>686.72516</ele>
        <time>2022-06-30T06:50:19Z</time>
      </trkpt>
      <trkpt lat="45.26601" lon="5.57673">
        <ele>688.41156</ele>
        <time>2022-06-30T06:50:29Z</time>
      </trkpt>
      <trkpt lat="45.26609" lon="5.57709">
        <ele>689.52515</ele>
        <time>2022-06-30T06:50:39Z</time>
      </trkpt>
      <trkpt lat="45.26613" lon="5.57743">
        <ele>689.23346</ele>
        <time>2022-06-30T06:50:49Z</time>
      </trkpt>
      <trkpt lat="45.26614" lon="5.57782">
        <ele>690.1403</ele>
        <time>2022-06-30T06:50:59Z</time>
      </trkpt>
      <trkpt lat="45.26611" lon="5.57804">
        <ele>691.4448</ele>
        <time>2022-06-30T06:51:09Z</time>
      </trkpt>
      <trkpt lat="45.26629" lon="5.57832">
        <ele>693.7782</ele>
        <time>2022-06-30T06:51:19Z</time>
      </trkpt>
      <trkpt lat="45.26636" lon="5.57864">
        <ele>695.1145</ele>
        <time>2022-06-30T06:51:29Z</time>
      </trkpt>
      <trkpt lat="45.26619" lon="5.57891">
        <ele>697.9622</ele>
        <time>2022-06-30T06:51:39Z</time>
      </trkpt>
      <trkpt lat="45.26621" lon="5.57911">
        <ele>698.76294</ele>
        <time>2022-06-30T06:51:49Z</time>
      </trkpt>
      <trkpt lat="45.26604" lon="5.57922">
        <ele>700.4228</ele>
        <time>2022-06-30T06:52:47Z</time>
      </trkpt>
      <trkpt lat="45.26607" lon="5.57941">
        <ele>704.48486</ele>
        <time>2022-06-30T06:54:36Z</time>
      </trkpt>
      <trkpt lat="45.26622" lon="5.57942">
        <ele>709.3796</ele>
        <time>2022-06-30T06:55:38Z</time>
      </trkpt>
      <trkpt lat="45.26633" lon="5.57957">
        <ele>715.0007</ele>
        <time>2022-06-30T06:56:22Z</time>
      </trkpt>
      <trkpt lat="45.26638" lon="5.57974">
        <ele>716.6181</ele>
        <time>2022-06-30T06:56:34Z</time>
      </trkpt>
      <trkpt lat="45.26652" lon="5.57991">
        <ele>721.3113</ele>
        <time>2022-06-30T06:57:24Z</time>
      </trkpt>
      <trkpt lat="45.26656" lon="5.58003">
        <ele>725.8665</ele>
        <time>2022-06-30T06:58:11Z</time>
      </trkpt>
      <trkpt lat="45.26669" lon="5.58005">
        <ele>728.1945</ele>
        <time>2022-06-30T06:58:42Z</time>
      </trkpt>
      <trkpt lat="45.26729" lon="5.58033">
        <ele>735.80963</ele>
        <time>2022-06-30T07:01:12Z</time>
      </trkpt>
      <trkpt lat="45.26756" lon="5.58053">
        <ele>736.5096</ele>
        <time>2022-06-30T07:01:22Z</time>
      </trkpt>
      <trkpt lat="45.26764" lon="5.5806">
        <ele>737.708</ele>
        <time>2022-06-30T07:01:32Z</time>
      </trkpt>
      <trkpt lat="45.26772" lon="5.58072">
        <ele>738.8164</ele>
        <time>2022-06-30T07:01:44Z</time>
      </trkpt>
      <trkpt lat="45.26771" lon="5.5808">
        <ele>739.87695</ele>
        <time>2022-06-30T07:01:54Z</time>
      </trkpt>
      <trkpt lat="45.26765" lon="5.58091">
        <ele>741.0807</ele>
        <time>2022-06-30T07:02:13Z</time>
      </trkpt>
      <trkpt lat="45.26763" lon="5.58103">
        <ele>743.24963</ele>
        <time>2022-06-30T07:02:25Z</time>
      </trkpt>
      <trkpt lat="45.26764" lon="5.58117">
        <ele>745.12695</ele>
        <time>2022-06-30T07:03:03Z</time>
      </trkpt>
      <trkpt lat="45.2677" lon="5.58128">
        <ele>746.39966</ele>
        <time>2022-06-30T07:03:15Z</time>
      </trkpt>
      <trkpt lat="45.26778" lon="5.58138">
        <ele>747.7095</ele>
        <time>2022-06-30T07:03:27Z</time>
      </trkpt>
      <trkpt lat="45.26783" lon="5.58146">
        <ele>748.4041</ele>
        <time>2022-06-30T07:03:56Z</time>
      </trkpt>
      <trkpt lat="45.26791" lon="5.58156">
        <ele>749.8253</ele>
        <time>2022-06-30T07:04:08Z</time>
      </trkpt>
      <trkpt lat="45.26799" lon="5.58164">
        <ele>752.92224</ele>
        <time>2022-06-30T07:04:28Z</time>
      </trkpt>
      <trkpt lat="45.26807" lon="5.5817">
        <ele>755.55255</ele>
        <time>2022-06-30T07:04:48Z</time>
      </trkpt>
      <trkpt lat="45.26814" lon="5.58171">
        <ele>757.7533</ele>
        <time>2022-06-30T07:05:42Z</time>
      </trkpt>
      <trkpt lat="45.26819" lon="5.58182">
        <ele>759.1851</ele>
        <time>2022-06-30T07:05:58Z</time>
      </trkpt>
      <trkpt lat="45.26828" lon="5.58192">
        <ele>760.6116</ele>
        <time>2022-06-30T07:06:14Z</time>
      </trkpt>
      <trkpt lat="45.26829" lon="5.58198">
        <ele>762.22375</ele>
        <time>2022-06-30T07:06:24Z</time>
      </trkpt>
      <trkpt lat="45.26834" lon="5.58203">
        <ele>763.25244</ele>
        <time>2022-06-30T07:06:44Z</time>
      </trkpt>
      <trkpt lat="45.26834" lon="5.58201">
        <ele>764.5358</ele>
        <time>2022-06-30T07:06:56Z</time>
      </trkpt>
      <trkpt lat="45.26843" lon="5.58206">
        <ele>764.6896</ele>
        <time>2022-06-30T07:07:21Z</time>
      </trkpt>
      <trkpt lat="45.26851" lon="5.58214">
        <ele>765.4267</ele>
        <time>2022-06-30T07:07:31Z</time>
      </trkpt>
      <trkpt lat="45.26857" lon="5.58215">
        <ele>766.5191</ele>
        <time>2022-06-30T07:07:41Z</time>
      </trkpt>
      <trkpt lat="45.26862" lon="5.58226">
        <ele>767.16077</ele>
        <time>2022-06-30T07:07:57Z</time>
      </trkpt>
      <trkpt lat="45.26873" lon="5.58233">
        <ele>767.73346</ele>
        <time>2022-06-30T07:08:09Z</time>
      </trkpt>
      <trkpt lat="45.26884" lon="5.58242">
        <ele>768.7888</ele>
        <time>2022-06-30T07:08:19Z</time>
      </trkpt>
      <trkpt lat="45.26892" lon="5.58246">
        <ele>770.3372</ele>
        <time>2022-06-30T07:08:29Z</time>
      </trkpt>
      <trkpt lat="45.26897" lon="5.58259">
        <ele>771.435</ele>
        <time>2022-06-30T07:08:45Z</time>
        <extensions>
          <gpxtpx:TrackPointExtension xmlns:gpxtpx="http://www.garmin.com/xmlschemas/TrackPointExtension/v1">
            <gpxtpx:hr>134</gpxtpx:hr>
          </gpxtpx:TrackPointExtension>
        </extensions>
      </trkpt>
      <trkpt lat="45.26907" lon="5.58273">
        <ele>773.2009</ele>
        <time>2022-06-30T07:08:55Z</time>
      </trkpt>
      <trkpt lat="45.2691" lon="5.58274">
        <ele>773.41296</ele>
        <time>2022-06-30T07:09:19Z</time>
      </trkpt>
      <trkpt lat="45.26921" lon="5.58276">
        <ele>774.9243</ele>
        <time>2022-06-30T07:09:31Z</time>
      </trkpt>
      <trkpt lat="45.26922" lon="5.58277">
        <ele>774.9933</ele>
        <time>2022-06-30T07:10:02Z</time>
      </trkpt>
      <trkpt lat="45.26928" lon="5.58298">
        <ele>775.794</ele>
        <time>2022-06-30T07:10:14Z</time>
      </trkpt>
      <trkpt lat="45.26934" lon="5.58323">
        <ele>777.63947</ele>
        <time>2022-06-30T07:10:24Z</time>
      </trkpt>
      <trkpt lat="45.26942" lon="5.58358">
        <ele>779.3046</ele>
        <time>2022-06-30T07:10:34Z</time>
      </trkpt>
      <trkpt lat="45.2695" lon="5.5838">
        <ele>781.12885</ele>
        <time>2022-06-30T07:10:44Z</time>
      </trkpt>
      <trkpt lat="45.2695" lon="5.58391">
        <ele>781.99316</ele>
        <time>2022-06-30T07:11:06Z</time>
      </trkpt>
      <trkpt lat="45.2695" lon="5.58405">
        <ele>783.5788</ele>
        <time>2022-06-30T07:11:22Z</time>
      </trkpt>
      <trkpt lat="45.26958" lon="5.58407">
        <ele>783.81213</ele>
        <time>2022-06-30T07:11:46Z</time>
      </trkpt>
      <trkpt lat="45.26966" lon="5.58415">
        <ele>785.2174</ele>
        <time>2022-06-30T07:11:56Z</time>
      </trkpt>
      <trkpt lat="45.26965" lon="5.58418">
        <ele>786.2833</ele>
        <time>2022-06-30T07:14:02Z</time>
      </trkpt>
      <trkpt lat="45.26971" lon="5.58428">
        <ele>787.5189</ele>
        <time>2022-06-30T07:14:14Z</time>
      </trkpt>
      <trkpt lat="45.26972" lon="5.58438">
        <ele>788.8977</ele>
        <time>2022-06-30T07:14:26Z</time>
      </trkpt>
      <trkpt lat="45.26975" lon="5.58449">
        <ele>790.1704</ele>
        <time>2022-06-30T07:14:42Z</time>
      </trkpt>
      <trkpt lat="45.26975" lon="5.58463">
        <ele>790.6742</ele>
        <time>2022-06-30T07:14:54Z</time>
      </trkpt>
      <trkpt lat="45.26976" lon="5.58477">
        <ele>791.4803</ele>
        <time>2022-06-30T07:15:06Z</time>
      </trkpt>
      <trkpt lat="45.26973" lon="5.58486">
        <ele>792.0689</ele>
        <time>2022-06-30T07:15:22Z</time>
      </trkpt>
      <trkpt lat="45.26985" lon="5.58495">
        <ele>792.5833</ele>
        <time>2022-06-30T07:15:32Z</time>
      </trkpt>
      <trkpt lat="45.26994" lon="5.58503">
        <ele>793.331</ele>
        <time>2022-06-30T07:15:42Z</time>
      </trkpt>
      <trkpt lat="45.26991" lon="5.58513">
        <ele>794.0893</ele>
        <time>2022-06-30T07:15:52Z</time>
      </trkpt>
      <trkpt lat="45.27" lon="5.5852">
        <ele>794.90594</ele>
        <time>2022-06-30T07:16:02Z</time>
      </trkpt>
      <trkpt lat="45.27015" lon="5.58522">
        <ele>796.0249</ele>
        <time>2022-06-30T07:16:12Z</time>
      </trkpt>
      <trkpt lat="45.27014" lon="5.58536">
        <ele>796.65594</ele>
        <time>2022-06-30T07:16:22Z</time>
      </trkpt>
      <trkpt lat="45.27016" lon="5.58544">
        <ele>797.23926</ele>
        <time>2022-06-30T07:16:49Z</time>
      </trkpt>
      <trkpt lat="45.27018" lon="5.58543">
        <ele>797.55743</ele>
        <time>2022-06-30T07:17:05Z</time>
      </trkpt>
      <trkpt lat="45.27033" lon="5.58567">
        <ele>798.9044</ele>
        <time>2022-06-30T07:17:15Z</time>
      </trkpt>
      <trkpt lat="45.27057" lon="5.58582">
        <ele>801.0468</ele>
        <time>2022-06-30T07:17:25Z</time>
      </trkpt>
      <trkpt lat="45.27073" lon="5.58603">
        <ele>802.00134</ele>
        <time>2022-06-30T07:17:35Z</time>
      </trkpt>
      <trkpt lat="45.27087" lon="5.58621">
        <ele>803.6718</ele>
        <time>2022-06-30T07:17:45Z</time>
      </trkpt>
      <trkpt lat="45.271" lon="5.58635">
        <ele>805.86725</ele>
        <time>2022-06-30T07:17:55Z</time>
      </trkpt>
      <trkpt lat="45.27107" lon="5.58646">
        <ele>807.6968</ele>
        <time>2022-06-30T07:18:05Z</time>
      </trkpt>
      <trkpt lat="45.27098" lon="5.58652">
        <ele>808.21643</ele>
        <time>2022-06-30T07:18:15Z</time>
      </trkpt>
      <trkpt lat="45.27126" lon="5.58655">
        <ele>810.80963</ele>
        <time>2022-06-30T07:18:29Z</time>
      </trkpt>
      <trkpt lat="45.27167" lon="5.58689">
        <ele>813.32324</ele>
        <time>2022-06-30T07:18:39Z</time>
      </trkpt>
      <trkpt lat="45.27192" lon="5.58699">
        <ele>815.4603</ele>
        <time>2022-06-30T07:18:49Z</time>
      </trkpt>
      <trkpt lat="45.272" lon="5.58709">
        <ele>818.5307</ele>
        <time>2022-06-30T07:18:59Z</time>
      </trkpt>
      <trkpt lat="45.27215" lon="5.58716">
        <ele>821.87695</ele>
        <time>2022-06-30T07:19:09Z</time>
      </trkpt>
      <trkpt lat="45.27227" lon="5.58718">
        <ele>826.26245</ele>
        <time>2022-06-30T07:19:19Z</time>
      </trkpt>
      <trkpt lat="45.27215" lon="5.58686">
        <ele>826.5382</ele>
        <time>2022-06-30T07:19:29Z</time>
      </trkpt>
      <trkpt lat="45.27207" lon="5.5865">
        <ele>827.87463</ele>
        <time>2022-06-30T07:19:39Z</time>
      </trkpt>
      <trkpt lat="45.2721" lon="5.58634">
        <ele>830.6162</ele>
        <time>2022-06-30T07:19:49Z</time>
      </trkpt>
      <trkpt lat="45.27214" lon="5.58617">
        <ele>832.62604</ele>
        <time>2022-06-30T07:19:59Z</time>
      </trkpt>
      <trkpt lat="45.27222" lon="5.586">
        <ele>832.75867</ele>
        <time>2022-06-30T07:20:09Z</time>
      </trkpt>
      <trkpt lat="45.27213" lon="5.58601">
        <ele>832.5306</ele>
        <time>2022-06-30T07:21:12Z</time>
      </trkpt>
      <trkpt lat="45.27219" lon="5.58598">
        <ele>832.51465</ele>
        <time>2022-06-30T07:21:33Z</time>
      </trkpt>
      <trkpt lat="45.27212" lon="5.58591">
        <ele>834.2487</ele>
        <time>2022-06-30T07:21:45Z</time>
      </trkpt>
      <trkpt lat="45.27211" lon="5.58579">
        <ele>835.7124</ele>
        <time>2022-06-30T07:21:57Z</time>
      </trkpt>
      <trkpt lat="45.27204" lon="5.58571">
        <ele>837.03815</ele>
        <time>2022-06-30T07:22:09Z</time>
      </trkpt>
      <trkpt lat="45.27205" lon="5.5855">
        <ele>838.5813</ele>
        <time>2022-06-30T07:22:35Z</time>
      </trkpt>
      <trkpt lat="45.27203" lon="5.58533">
        <ele>840.9465</ele>
        <time>2022-06-30T07:22:56Z</time>
      </trkpt>
      <trkpt lat="45.272" lon="5.5852">
        <ele>842.6169</ele>
        <time>2022-06-30T07:23:08Z</time>
      </trkpt>
      <trkpt lat="45.27211" lon="5.58526">
        <ele>843.43884</ele>
        <time>2022-06-30T07:23:31Z</time>
      </trkpt>
      <trkpt lat="45.2723" lon="5.58546">
        <ele>845.4221</ele>
        <time>2022-06-30T07:23:51Z</time>
      </trkpt>
      <trkpt lat="45.27238" lon="5.58551">
        <ele>846.4244</ele>
        <time>2022-06-30T07:24:03Z</time>
      </trkpt>
      <trkpt lat="45.27243" lon="5.58566">
        <ele>847.80316</ele>
        <time>2022-06-30T07:24:19Z</time>
      </trkpt>
      <trkpt lat="45.2725" lon="5.58576">
        <ele>848.2486</ele>
        <time>2022-06-30T07:24:31Z</time>
      </trkpt>
      <trkpt lat="45.27248" lon="5.58587">
        <ele>849.2721</ele>
        <time>2022-06-30T07:24:47Z</time>
      </trkpt>
      <trkpt lat="45.27256" lon="5.58599">
        <ele>850.64557</ele>
        <time>2022-06-30T07:24:57Z</time>
      </trkpt>
      <trkpt lat="45.27272" lon="5.58603">
        <ele>850.7569</ele>
        <time>2022-06-30T07:25:07Z</time>
      </trkpt>
      <trkpt lat="45.27285" lon="5.5862">
        <ele>849.9986</ele>
        <time>2022-06-30T07:25:17Z</time>
      </trkpt>
      <trkpt lat="45.27306" lon="5.58619">
        <ele>850.6827</ele>
        <time>2022-06-30T07:25:27Z</time>
      </trkpt>
      <trkpt lat="45.27304" lon="5.58593">
        <ele>847.1403</ele>
        <time>2022-06-30T07:25:39Z</time>
      </trkpt>
      <trkpt lat="45.27293" lon="5.58577">
        <ele>841.19037</ele>
        <time>2022-06-30T07:25:49Z</time>
      </trkpt>
      <trkpt lat="45.2728" lon="5.58482">
        <ele>836.31696</ele>
        <time>2022-06-30T07:25:59Z</time>
      </trkpt>
      <trkpt lat="45.27251" lon="5.58369">
        <ele>832.70026</ele>
        <time>2022-06-30T07:26:09Z</time>
      </trkpt>
      <trkpt lat="45.27228" lon="5.58293">
        <ele>832.3503</ele>
        <time>2022-06-30T07:26:19Z</time>
      </trkpt>
      <trkpt lat="45.27218" lon="5.58197">
        <ele>831.7775</ele>
        <time>2022-06-30T07:26:29Z</time>
      </trkpt>
      <trkpt lat="45.27231" lon="5.58128">
        <ele>827.10034</ele>
        <time>2022-06-30T07:26:39Z</time>
      </trkpt>
      <trkpt lat="45.27239" lon="5.58068">
        <ele>821.86633</ele>
        <time>2022-06-30T07:26:49Z</time>
      </trkpt>
      <trkpt lat="45.27257" lon="5.58011">
        <ele>816.68</ele>
        <time>2022-06-30T07:26:59Z</time>
      </trkpt>
      <trkpt lat="45.27234" lon="5.57922">
        <ele>814.65424</ele>
        <time>2022-06-30T07:27:09Z</time>
      </trkpt>
      <trkpt lat="45.27231" lon="5.57859">
        <ele>813.2278</ele>
        <time>2022-06-30T07:27:19Z</time>
      </trkpt>
      <trkpt lat="45.27201" lon="5.5783">
        <ele>807.4581</ele>
        <time>2022-06-30T07:27:29Z</time>
      </trkpt>
      <trkpt lat="45.27192" lon="5.57814">
        <ele>806.33386</ele>
        <time>2022-06-30T07:27:39Z</time>
      </trkpt>
      <trkpt lat="45.2719" lon="5.57815">
        <ele>806.81116</ele>
        <time>2022-06-30T07:27:55Z</time>
      </trkpt>
      <trkpt lat="45.27194" lon="5.57814">
        <ele>806.3975</ele>
        <time>2022-06-30T07:28:11Z</time>
      </trkpt>
      <trkpt lat="45.2719" lon="5.57816">
        <ele>806.5142</ele>
        <time>2022-06-30T07:28:23Z</time>
      </trkpt>
      <trkpt lat="45.27203" lon="5.57779">
        <ele>797.78015</ele>
        <time>2022-06-30T07:28:59Z</time>
      </trkpt>
      <trkpt lat="45.27232" lon="5.57699">
        <ele>790.5416</ele>
        <time>2022-06-30T07:29:09Z</time>
      </trkpt>
      <trkpt lat="45.27236" lon="5.57638">
        <ele>783.6901</ele>
        <time>2022-06-30T07:29:19Z</time>
      </trkpt>
      <trkpt lat="45.27217" lon="5.57609">
        <ele>779.6175</ele>
        <time>2022-06-30T07:29:29Z</time>
      </trkpt>
      <trkpt lat="45.27207" lon="5.57575">
        <ele>775.3645</ele>
        <time>2022-06-30T07:29:39Z</time>
      </trkpt>
      <trkpt lat="45.27234" lon="5.57513">
        <ele>768.582</ele>
        <time>2022-06-30T07:29:49Z</time>
      </trkpt>
      <trkpt lat="45.27308" lon="5.5744">
        <ele>751.7238</ele>
        <time>2022-06-30T07:29:59Z</time>
      </trkpt>
      <trkpt lat="45.27378" lon="5.57411">
        <ele>744.1193</ele>
        <time>2022-06-30T07:30:09Z</time>
      </trkpt>
      <trkpt lat="45.27412" lon="5.57345">
        <ele>736.71106</ele>
        <time>2022-06-30T07:30:19Z</time>
      </trkpt>
      <trkpt lat="45.27377" lon="5.57341">
        <ele>731.6415</ele>
        <time>2022-06-30T07:30:29Z</time>
      </trkpt>
      <trkpt lat="45.27337" lon="5.57324">
        <ele>726.1847</ele>
        <time>2022-06-30T07:30:39Z</time>
      </trkpt>
      <trkpt lat="45.27295" lon="5.57297">
        <ele>721.534</ele>
        <time>2022-06-30T07:30:49Z</time>
      </trkpt>
      <trkpt lat="45.27293" lon="5.57244">
        <ele>718.68097</ele>
        <time>2022-06-30T07:30:59Z</time>
      </trkpt>
      <trkpt lat="45.27256" lon="5.5724">
        <ele>715.8174</ele>
        <time>2022-06-30T07:31:09Z</time>
      </trkpt>
      <trkpt lat="45.27201" lon="5.57246">
        <ele>712.381</ele>
        <time>2022-06-30T07:31:19Z</time>
      </trkpt>
      <trkpt lat="45.27172" lon="5.57232">
        <ele>708.8598</ele>
        <time>2022-06-30T07:31:29Z</time>
      </trkpt>
      <trkpt lat="45.27158" lon="5.57247">
        <ele>706.5106</ele>
        <time>2022-06-30T07:31:39Z</time>
      </trkpt>
      <trkpt lat="45.27129" lon="5.57249">
        <ele>706.3462</ele>
        <time>2022-06-30T07:32:15Z</time>
      </trkpt>
      <trkpt lat="45.27084" lon="5.57299">
        <ele>705.31213</ele>
        <time>2022-06-30T07:32:25Z</time>
      </trkpt>
      <trkpt lat="45.27042" lon="5.57343">
        <ele>701.4834</ele>
        <time>2022-06-30T07:32:35Z</time>
      </trkpt>
      <trkpt lat="45.26992" lon="5.57354">
        <ele>693.90546</ele>
        <time>2022-06-30T07:32:45Z</time>
      </trkpt>
      <trkpt lat="45.26993" lon="5.57372">
        <ele>688.8305</ele>
        <time>2022-06-30T07:32:55Z</time>
      </trkpt>
      <trkpt lat="45.27014" lon="5.57243">
        <ele>683.3207</ele>
        <time>2022-06-30T07:33:05Z</time>
      </trkpt>
      <trkpt lat="45.27013" lon="5.5713">
        <ele>677.8692</ele>
        <time>2022-06-30T07:33:15Z</time>
      </trkpt>
      <trkpt lat="45.26973" lon="5.57013">
        <ele>668.7004</ele>
        <time>2022-06-30T07:33:25Z</time>
      </trkpt>
      <trkpt lat="45.26936" lon="5.56927">
        <ele>666.4519</ele>
        <time>2022-06-30T07:33:35Z</time>
      </trkpt>
      <trkpt lat="45.26936" lon="5.56912">
        <ele>666.6057</ele>
        <time>2022-06-30T07:33:46Z</time>
      </trkpt>
      <trkpt lat="45.26903" lon="5.56812">
        <ele>667.4011</ele>
        <time>2022-06-30T07:34:01Z</time>
      </trkpt>
      <trkpt lat="45.26919" lon="5.56721">
        <ele>664.5905</ele>
        <time>2022-06-30T07:34:11Z</time>
      </trkpt>
      <trkpt lat="45.26971" lon="5.56621">
        <ele>659.1603</ele>
        <time>2022-06-30T07:34:21Z</time>
      </trkpt>
      <trkpt lat="45.2702" lon="5.56472">
        <ele>649.77405</ele>
        <time>2022-06-30T07:34:31Z</time>
      </trkpt>
      <trkpt lat="45.2712" lon="5.5647">
        <ele>648.17786</ele>
        <time>2022-06-30T07:34:41Z</time>
      </trkpt>
      <trkpt lat="45.2717" lon="5.56416">
        <ele>645.0597</ele>
        <time>2022-06-30T07:34:51Z</time>
      </trkpt>
      <trkpt lat="45.27212" lon="5.56415">
        <ele>645.4362</ele>
        <time>2022-06-30T07:35:01Z</time>
      </trkpt>
      <trkpt lat="45.27259" lon="5.56467">
        <ele>646.90515</ele>
        <time>2022-06-30T07:35:11Z</time>
      </trkpt>
      <trkpt lat="45.27298" lon="5.56513">
        <ele>648.5013</ele>
        <time>2022-06-30T07:35:21Z</time>
      </trkpt>
      <trkpt lat="45.27339" lon="5.56563">
        <ele>649.3922</ele>
        <time>2022-06-30T07:35:31Z</time>
      </trkpt>
      <trkpt lat="45.27375" lon="5.56592">
        <ele>651.22705</ele>
        <time>2022-06-30T07:35:41Z</time>
      </trkpt>
      <trkpt lat="45.27423" lon="5.56598">
        <ele>653.7672</ele>
        <time>2022-06-30T07:35:51Z</time>
      </trkpt>
      <trkpt lat="45.27454" lon="5.5662">
        <ele>655.59143</ele>
        <time>2022-06-30T07:36:01Z</time>
      </trkpt>
      <trkpt lat="45.27479" lon="5.56626">
        <ele>656.7369</ele>
        <time>2022-06-30T07:36:11Z</time>
      </trkpt>
      <trkpt lat="45.27502" lon="5.56651">
        <ele>657.3201</ele>
        <time>2022-06-30T07:36:21Z</time>
      </trkpt>
      <trkpt lat="45.27528" lon="5.56702">
        <ele>659.2876</ele>
        <time>2022-06-30T07:36:31Z</time>
      </trkpt>
      <trkpt lat="45.2755" lon="5.56731">
        <ele>661.35046</ele>
        <time>2022-06-30T07:36:41Z</time>
      </trkpt>
      <trkpt lat="45.27594" lon="5.56756">
        <ele>662.4588</ele>
        <time>2022-06-30T07:36:51Z</time>
      </trkpt>
      <trkpt lat="45.27641" lon="5.56779">
        <ele>662.68677</ele>
        <time>2022-06-30T07:37:01Z</time>
      </trkpt>
      <trkpt lat="45.27649" lon="5.56831">
        <ele>662.9944</ele>
        <time>2022-06-30T07:37:11Z</time>
      </trkpt>
      <trkpt lat="45.27696" lon="5.56865">
        <ele>665.1049</ele>
        <time>2022-06-30T07:37:21Z</time>
      </trkpt>
      <trkpt lat="45.27725" lon="5.56872">
        <ele>666.0807</ele>
        <time>2022-06-30T07:37:31Z</time>
      </trkpt>
      <trkpt lat="45.27731" lon="5.56925">
        <ele>668.6739</ele>
        <time>2022-06-30T07:37:41Z</time>
      </trkpt>
      <trkpt lat="45.27744" lon="5.56934">
        <ele>670.5193</ele>
        <time>2022-06-30T07:37:51Z</time>
      </trkpt>
      <trkpt lat="45.27766" lon="5.56949">
        <ele>671.9193</ele>
        <time>2022-06-30T07:38:01Z</time>
      </trkpt>
      <trkpt lat="45.27775" lon="5.56957">
        <ele>671.6541</ele>
        <time>2022-06-30T07:38:11Z</time>
      </trkpt>
      <trkpt lat="45.27776" lon="5.5697">
        <ele>671.60114</ele>
        <time>2022-06-30T07:38:26Z</time>
      </trkpt>
      <trkpt lat="45.27773" lon="5.56954">
        <ele>671.9829</ele>
        <time>2022-06-30T07:38:46Z</time>
      </trkpt>
      <trkpt lat="45.27759" lon="5.5697">
        <ele>673.55255</ele>
        <time>2022-06-30T07:40:16Z</time>
      </trkpt>
      <trkpt lat="45.27735" lon="5.56996">
        <ele>674.0564</ele>
        <time>2022-06-30T07:40:26Z</time>
      </trkpt>
      <trkpt lat="45.27708" lon="5.57026">
        <ele>676.15106</ele>
        <time>2022-06-30T07:40:36Z</time>
      </trkpt>
      <trkpt lat="45.2769" lon="5.57037">
        <ele>677.1851</ele>
        <time>2022-06-30T07:40:46Z</time>
      </trkpt>
      <trkpt lat="45.27676" lon="5.57061">
        <ele>678.4261</ele>
        <time>2022-06-30T07:40:56Z</time>
      </trkpt>
      <trkpt lat="45.2766" lon="5.57067">
        <ele>680.1442</ele>
        <time>2022-06-30T07:41:06Z</time>
      </trkpt>
      <trkpt lat="45.27655" lon="5.57077">
        <ele>681.8571</ele>
        <time>2022-06-30T07:41:16Z</time>
      </trkpt>
      <trkpt lat="45.27644" lon="5.57091">
        <ele>685.7336</ele>
        <time>2022-06-30T07:41:50Z</time>
      </trkpt>
      <trkpt lat="45.27629" lon="5.57099">
        <ele>687.01685</ele>
        <time>2022-06-30T07:42:00Z</time>
      </trkpt>
      <trkpt lat="45.2762" lon="5.57111">
        <ele>687.7699</ele>
        <time>2022-06-30T07:42:10Z</time>
      </trkpt>
      <trkpt lat="45.27618" lon="5.57105">
        <ele>687.9661</ele>
        <time>2022-06-30T07:42:38Z</time>
      </trkpt>
      <trkpt lat="45.27631" lon="5.5709">
        <ele>683.2941</ele>
        <time>2022-06-30T07:44:45Z</time>
      </trkpt>
      <trkpt lat="45.27648" lon="5.57078">
        <ele>681.56006</ele>
        <time>2022-06-30T07:44:55Z</time>
      </trkpt>
      <trkpt lat="45.27673" lon="5.57062">
        <ele>678.8185</ele>
        <time>2022-06-30T07:45:05Z</time>
      </trkpt>
      <trkpt lat="45.277" lon="5.57044">
        <ele>676.3738</ele>
        <time>2022-06-30T07:45:15Z</time>
      </trkpt>
      <trkpt lat="45.27741" lon="5.57002">
        <ele>674.7776</ele>
        <time>2022-06-30T07:45:25Z</time>
      </trkpt>
      <trkpt lat="45.2777" lon="5.56958">
        <ele>672.75714</ele>
        <time>2022-06-30T07:45:35Z</time>
      </trkpt>
      <trkpt lat="45.2778" lon="5.56951">
        <ele>672.089</ele>
        <time>2022-06-30T07:45:45Z</time>
      </trkpt>
      <trkpt lat="45.27758" lon="5.56945">
        <ele>671.64355</ele>
        <time>2022-06-30T07:45:55Z</time>
      </trkpt>
      <trkpt lat="45.27728" lon="5.569">
        <ele>667.3269</ele>
        <time>2022-06-30T07:46:05Z</time>
      </trkpt>
      <trkpt lat="45.27726" lon="5.56879">
        <ele>666.1656</ele>
        <time>2022-06-30T07:46:15Z</time>
      </trkpt>
      <trkpt lat="45.27734" lon="5.56875">
        <ele>666.7754</ele>
        <time>2022-06-30T07:46:25Z</time>
      </trkpt>
      <trkpt lat="45.27685" lon="5.5687">
        <ele>664.0232</ele>
        <time>2022-06-30T07:48:25Z</time>
      </trkpt>
      <trkpt lat="45.27639" lon="5.56836">
        <ele>663.4345</ele>
        <time>2022-06-30T07:48:35Z</time>
      </trkpt>
      <trkpt lat="45.2758" lon="5.56777">
        <ele>660.3641</ele>
        <time>2022-06-30T07:48:45Z</time>
      </trkpt>
      <trkpt lat="45.27517" lon="5.56726">
        <ele>658.0255</ele>
        <time>2022-06-30T07:48:55Z</time>
      </trkpt>
      <trkpt lat="45.27468" lon="5.56661">
        <ele>655.77704</ele>
        <time>2022-06-30T07:49:05Z</time>
      </trkpt>
      <trkpt lat="45.27387" lon="5.56604">
        <ele>650.2354</ele>
        <time>2022-06-30T07:49:15Z</time>
      </trkpt>
      <trkpt lat="45.27319" lon="5.56541">
        <ele>648.0665</ele>
        <time>2022-06-30T07:49:25Z</time>
      </trkpt>
      <trkpt lat="45.27252" lon="5.56499">
        <ele>647.50964</ele>
        <time>2022-06-30T07:49:35Z</time>
      </trkpt>
      <trkpt lat="45.27221" lon="5.56417">
        <ele>644.1105</ele>
        <time>2022-06-30T07:49:45Z</time>
      </trkpt>
      <trkpt lat="45.2714" lon="5.56251">
        <ele>637.95905</ele>
        <time>2022-06-30T07:49:59Z</time>
      </trkpt>
      <trkpt lat="45.27132" lon="5.56109">
        <ele>635.21735</ele>
        <time>2022-06-30T07:50:09Z</time>
      </trkpt>
      <trkpt lat="45.27091" lon="5.55956">
        <ele>630.02576</ele>
        <time>2022-06-30T07:50:19Z</time>
      </trkpt>
      <trkpt lat="45.27047" lon="5.55908">
        <ele>623.5031</ele>
        <time>2022-06-30T07:50:29Z</time>
      </trkpt>
      <trkpt lat="45.27023" lon="5.558">
        <ele>616.84784</ele>
        <time>2022-06-30T07:50:39Z</time>
      </trkpt>
      <trkpt lat="45.26985" lon="5.55661">
        <ele>610.3676</ele>
        <time>2022-06-30T07:50:49Z</time>
      </trkpt>
      <trkpt lat="45.26949" lon="5.55587">
        <ele>607.8752</ele>
        <time>2022-06-30T07:50:59Z</time>
      </trkpt>
      <trkpt lat="45.27004" lon="5.55661">
        <ele>602.6146</ele>
        <time>2022-06-30T07:51:09Z</time>
      </trkpt>
      <trkpt lat="45.27101" lon="5.55729">
        <ele>593.93365</ele>
        <time>2022-06-30T07:51:19Z</time>
      </trkpt>
      <trkpt lat="45.27217" lon="5.5578">
        <ele>583.14215</ele>
        <time>2022-06-30T07:51:29Z</time>
      </trkpt>
      <trkpt lat="45.27324" lon="5.55787">
        <ele>574.127</ele>
        <time>2022-06-30T07:51:39Z</time>
      </trkpt>
      <trkpt lat="45.27382" lon="5.55819">
        <ele>564.3749</ele>
        <time>2022-06-30T07:51:49Z</time>
      </trkpt>
      <trkpt lat="45.27491" lon="5.5586">
        <ele>553.7848</ele>
        <time>2022-06-30T07:51:59Z</time>
      </trkpt>
      <trkpt lat="45.27598" lon="5.55957">
        <ele>540.49554</ele>
        <time>2022-06-30T07:52:09Z</time>
      </trkpt>
      <trkpt lat="45.27728" lon="5.56085">
        <ele>528.5797</ele>
        <time>2022-06-30T07:52:19Z</time>
      </trkpt>
      <trkpt lat="45.27803" lon="5.56188">
        <ele>522.6563</ele>
        <time>2022-06-30T07:52:29Z</time>
      </trkpt>
      <trkpt lat="45.27772" lon="5.56135">
        <ele>517.4594</ele>
        <time>2022-06-30T07:52:39Z</time>
      </trkpt>
      <trkpt lat="45.27741" lon="5.55973">
        <ele>506.87997</ele>
        <time>2022-06-30T07:52:49Z</time>
      </trkpt>
      <trkpt lat="45.27675" lon="5.55809">
        <ele>496.6187</ele>
        <time>2022-06-30T07:52:59Z</time>
      </trkpt>
      <trkpt lat="45.27628" lon="5.5567">
        <ele>485.14835</ele>
        <time>2022-06-30T07:53:09Z</time>
      </trkpt>
      <trkpt lat="45.2757" lon="5.55599">
        <ele>476.04315</ele>
        <time>2022-06-30T07:53:19Z</time>
      </trkpt>
      <trkpt lat="45.27464" lon="5.55448">
        <ele>462.79633</ele>
        <time>2022-06-30T07:53:29Z</time>
      </trkpt>
      <trkpt lat="45.27353" lon="5.55298">
        <ele>448.81766</ele>
        <time>2022-06-30T07:53:39Z</time>
      </trkpt>
      <trkpt lat="45.27291" lon="5.55203">
        <ele>439.27228</ele>
        <time>2022-06-30T07:53:49Z</time>
      </trkpt>
      <trkpt lat="45.27287" lon="5.55167">
        <ele>432.1769</ele>
        <time>2022-06-30T07:53:59Z</time>
      </trkpt>
      <trkpt lat="45.27329" lon="5.55163">
        <ele>425.20346</ele>
        <time>2022-06-30T07:54:09Z</time>
      </trkpt>
      <trkpt lat="45.27405" lon="5.55277">
        <ele>414.9051</ele>
        <time>2022-06-30T07:54:19Z</time>
      </trkpt>
      <trkpt lat="45.27484" lon="5.55375">
        <ele>407.33774</ele>
        <time>2022-06-30T07:54:29Z</time>
      </trkpt>
      <trkpt lat="45.2756" lon="5.55444">
        <ele>400.74615</ele>
        <time>2022-06-30T07:54:39Z</time>
      </trkpt>
      <trkpt lat="45.27528" lon="5.55443">
        <ele>398.10526</ele>
        <time>2022-06-30T07:54:49Z</time>
      </trkpt>
      <trkpt lat="45.27525" lon="5.55432">
        <ele>398.02042</ele>
        <time>2022-06-30T07:54:59Z</time>
      </trkpt>
      <trkpt lat="45.27568" lon="5.55497">
        <ele>391.81064</ele>
        <time>2022-06-30T07:55:17Z</time>
      </trkpt>
      <trkpt lat="45.27599" lon="5.55524">
        <ele>388.42734</ele>
        <time>2022-06-30T07:55:27Z</time>
      </trkpt>
      <trkpt lat="45.27632" lon="5.55582">
        <ele>380.8812</ele>
        <time>2022-06-30T07:55:37Z</time>
      </trkpt>
      <trkpt lat="45.27725" lon="5.55681">
        <ele>368.8222</ele>
        <time>2022-06-30T07:55:47Z</time>
      </trkpt>
      <trkpt lat="45.27825" lon="5.55751">
        <ele>361.82227</ele>
        <time>2022-06-30T07:55:57Z</time>
      </trkpt>
      <trkpt lat="45.27835" lon="5.55759">
        <ele>358.8208</ele>
        <time>2022-06-30T07:56:07Z</time>
      </trkpt>
      <trkpt lat="45.27763" lon="5.55667">
        <ele>348.05045</ele>
        <time>2022-06-30T07:56:17Z</time>
      </trkpt>
      <trkpt lat="45.27684" lon="5.55574">
        <ele>336.3998</ele>
        <time>2022-06-30T07:56:27Z</time>
      </trkpt>
      <trkpt lat="45.2761" lon="5.55355">
        <ele>326.21808</ele>
        <time>2022-06-30T07:56:37Z</time>
      </trkpt>
      <trkpt lat="45.27564" lon="5.55226">
        <ele>316.47647</ele>
        <time>2022-06-30T07:56:47Z</time>
      </trkpt>
      <trkpt lat="45.27533" lon="5.55044">
        <ele>306.95764</ele>
        <time>2022-06-30T07:56:57Z</time>
      </trkpt>
      <trkpt lat="45.27522" lon="5.54975">
        <ele>298.78577</ele>
        <time>2022-06-30T07:57:07Z</time>
      </trkpt>
      <trkpt lat="45.27568" lon="5.55025">
        <ele>292.69794</ele>
        <time>2022-06-30T07:57:18Z</time>
      </trkpt>
      <trkpt lat="45.27568" lon="5.55025">
        <ele>292.69794</ele>
        <time>2022-06-30T07:57:19Z</time>
      </trkpt>
      <trkpt lat="45.27568" lon="5.55025">
        <ele>292.69794</ele>
        <time>2022-06-30T07:57:20Z</time>
      </trkpt>
      <trkpt lat="45.27568" lon="5.55025">
        <ele>292.69794</ele>
        <time>2022-06-30T07:57:21Z</time>
      </trkpt>
      <trkpt lat="45.27687" lon="5.54906">
        <ele>277.01703</ele>
        <time>2022-06-30T07:57:31Z</time>
        <extensions>
          <gpxtpx:TrackPointExtension xmlns:gpxtpx="http://www.garmin.com/xmlschemas/TrackPointExtension/v1">
            <gpxtpx:hr>84</gpxtpx:hr>
          </gpxtpx:TrackPointExtension>
        </extensions>
      </trkpt>
      <trkpt lat="45.27688" lon="5.54779">
        <ele>270.88678</ele>
        <time>2022-06-30T07:57:41Z</time>
      </trkpt>
      <trkpt lat="45.27655" lon="5.54668">
        <ele>265.8914</ele>
        <time>2022-06-30T07:57:51Z</time>
      </trkpt>
      <trkpt lat="45.27628" lon="5.5457">
        <ele>263.92398</ele>
        <time>2022-06-30T07:58:01Z</time>
      </trkpt>
      <trkpt lat="45.27634" lon="5.54501">
        <ele>256.56873</ele>
        <time>2022-06-30T07:58:11Z</time>
      </trkpt>
      <trkpt lat="45.27704" lon="5.54539">
        <ele>249.62184</ele>
        <time>2022-06-30T07:58:21Z</time>
      </trkpt>
      <trkpt lat="45.27842" lon="5.54536">
        <ele>244.2022</ele>
        <time>2022-06-30T07:58:31Z</time>
        <extensions>
          <gpxtpx:TrackPointExtension xmlns:gpxtpx="http://www.garmin.com/xmlschemas/TrackPointExtension/v1">
            <gpxtpx:hr>85</gpxtpx:hr>
          </gpxtpx:TrackPointExtension>
        </extensions>
      </trkpt>
      <trkpt lat="45.27955" lon="5.54536">
        <ele>235.72272</ele>
        <time>2022-06-30T07:58:41Z</time>
      </trkpt>
      <trkpt lat="45.28077" lon="5.54639">
        <ele>227.62508</ele>
        <time>2022-06-30T07:58:51Z</time>
      </trkpt>
      <trkpt lat="45.28125" lon="5.54658">
        <ele>223.70616</ele>
        <time>2022-06-30T07:59:01Z</time>
      </trkpt>
      <trkpt lat="45.28161" lon="5.54709">
        <ele>223.62663</ele>
        <time>2022-06-30T07:59:11Z</time>
      </trkpt>
      <trkpt lat="45.2822" lon="5.54769">
        <ele>223.48344</ele>
        <time>2022-06-30T07:59:21Z</time>
      </trkpt>
      <trkpt lat="45.28294" lon="5.54839">
        <ele>219.1297</ele>
        <time>2022-06-30T07:59:31Z</time>
        <extensions>
          <gpxtpx:TrackPointExtension xmlns:gpxtpx="http://www.garmin.com/xmlschemas/TrackPointExtension/v1">
            <gpxtpx:hr>82</gpxtpx:hr>
          </gpxtpx:TrackPointExtension>
        </extensions>
      </trkpt>
      <trkpt lat="45.28336" lon="5.5491">
        <ele>214.38354</ele>
        <time>2022-06-30T07:59:41Z</time>
      </trkpt>
      <trkpt lat="45.28283" lon="5.55073">
        <ele>208.89496</ele>
        <time>2022-06-30T07:59:51Z</time>
      </trkpt>
      <trkpt lat="45.28267" lon="5.55179">
        <ele>210.37979</ele>
        <time>2022-06-30T08:00:01Z</time>
      </trkpt>
      <trkpt lat="45.28289" lon="5.55256">
        <ele>209.37222</ele>
        <time>2022-06-30T08:00:11Z</time>
      </trkpt>
      <trkpt lat="45.28318" lon="5.55357">
        <ele>209.13359</ele>
        <time>2022-06-30T08:00:21Z</time>
      </trkpt>
      <trkpt lat="45.28361" lon="5.55422">
        <ele>209.24495</ele>
        <time>2022-06-30T08:00:31Z</time>
        <extensions>
          <gpxtpx:TrackPointExtension xmlns:gpxtpx="http://www.garmin.com/xmlschemas/TrackPointExtension/v1">
            <gpxtpx:hr>108</gpxtpx:hr>
          </gpxtpx:TrackPointExtension>
        </extensions>
      </trkpt>
      <trkpt lat="45.28334" lon="5.55528">
        <ele>206.79497</ele>
        <time>2022-06-30T08:00:41Z</time>
      </trkpt>
      <trkpt lat="45.28293" lon="5.55629">
        <ele>199.99126</ele>
        <time>2022-06-30T08:00:51Z</time>
      </trkpt>
      <trkpt lat="45.28302" lon="5.55704">
        <ele>195.66931</ele>
        <time>2022-06-30T08:01:01Z</time>
      </trkpt>
      <trkpt lat="45.28337" lon="5.55819">
        <ele>191.99966</ele>
        <time>2022-06-30T08:01:11Z</time>
      </trkpt>
      <trkpt lat="45.28378" lon="5.55915">
        <ele>191.60725</ele>
        <time>2022-06-30T08:01:21Z</time>
      </trkpt>
      <trkpt lat="45.28427" lon="5.5598">
        <ele>191.99437</ele>
        <time>2022-06-30T08:01:31Z</time>
        <extensions>
          <gpxtpx:TrackPointExtension xmlns:gpxtpx="http://www.garmin.com/xmlschemas/TrackPointExtension/v1">
            <gpxtpx:hr>109</gpxtpx:hr>
          </gpxtpx:TrackPointExtension>
        </extensions>
      </trkpt>
      <trkpt lat="45.2844" lon="5.56014">
        <ele>190.9868</ele>
        <time>2022-06-30T08:01:41Z</time>
      </trkpt>
      <trkpt lat="45.28481" lon="5.55949">
        <ele>190.13832</ele>
        <time>2022-06-30T08:01:51Z</time>
      </trkpt>
      <trkpt lat="45.28508" lon="5.559">
        <ele>190.4565</ele>
        <time>2022-06-30T08:02:01Z</time>
      </trkpt>
      <trkpt lat="45.28556" lon="5.55849">
        <ele>190.56256</ele>
        <time>2022-06-30T08:02:11Z</time>
      </trkpt>
      <trkpt lat="45.28602" lon="5.5581">
        <ele>190.01636</ele>
        <time>2022-06-30T08:02:21Z</time>
      </trkpt>
      <trkpt lat="45.28628" lon="5.55782">
        <ele>190.42468</ele>
        <time>2022-06-30T08:02:31Z</time>
        <extensions>
          <gpxtpx:TrackPointExtension xmlns:gpxtpx="http://www.garmin.com/xmlschemas/TrackPointExtension/v1">
            <gpxtpx:hr>101</gpxtpx:hr>
          </gpxtpx:TrackPointExtension>
        </extensions>
      </trkpt>
      <trkpt lat="45.28663" lon="5.55749">
        <ele>191.05043</ele>
        <time>2022-06-30T08:02:41Z</time>
      </trkpt>
      <trkpt lat="45.28708" lon="5.557">
        <ele>188.76485</ele>
        <time>2022-06-30T08:02:51Z</time>
      </trkpt>
      <trkpt lat="45.28748" lon="5.55662">
        <ele>189.00348</ele>
        <time>2022-06-30T08:03:01Z</time>
      </trkpt>
      <trkpt lat="45.28758" lon="5.55652">
        <ele>189.17848</ele>
        <time>2022-06-30T08:03:11Z</time>
      </trkpt>
      <trkpt lat="45.28756" lon="5.55638">
        <ele>189.59741</ele>
        <time>2022-06-30T08:05:18Z</time>
      </trkpt>
      <trkpt lat="45.28777" lon="5.55606">
        <ele>189.66637</ele>
        <time>2022-06-30T08:05:28Z</time>
      </trkpt>
      <trkpt lat="45.28788" lon="5.55601">
        <ele>189.53908</ele>
        <time>2022-06-30T08:05:38Z</time>
      </trkpt>
      <trkpt lat="45.28769" lon="5.55621">
        <ele>190.12242</ele>
        <time>2022-06-30T08:07:00Z</time>
      </trkpt>
      <trkpt lat="45.28726" lon="5.55665">
        <ele>189.96332</ele>
        <time>2022-06-30T08:07:10Z</time>
      </trkpt>
      <trkpt lat="45.28692" lon="5.55694">
        <ele>190.7959</ele>
        <time>2022-06-30T08:07:20Z</time>
      </trkpt>
      <trkpt lat="45.28652" lon="5.55744">
        <ele>191.25725</ele>
        <time>2022-06-30T08:07:30Z</time>
      </trkpt>
      <trkpt lat="45.28624" lon="5.55762">
        <ele>190.85951</ele>
        <time>2022-06-30T08:07:40Z</time>
      </trkpt>
      <trkpt lat="45.28634" lon="5.55801">
        <ele>191.63376</ele>
        <time>2022-06-30T08:08:37Z</time>
      </trkpt>
      <trkpt lat="45.28655" lon="5.5589">
        <ele>192.17996</ele>
        <time>2022-06-30T08:08:47Z</time>
      </trkpt>
      <trkpt lat="45.28681" lon="5.55973">
        <ele>192.2754</ele>
        <time>2022-06-30T08:08:57Z</time>
      </trkpt>
      <trkpt lat="45.28705" lon="5.56058">
        <ele>192.07921</ele>
        <time>2022-06-30T08:09:07Z</time>
      </trkpt>
      <trkpt lat="45.28726" lon="5.56138">
        <ele>192.0633</ele>
        <time>2022-06-30T08:09:17Z</time>
      </trkpt>
      <trkpt lat="45.28752" lon="5.56223">
        <ele>192.39738</ele>
        <time>2022-06-30T08:09:27Z</time>
      </trkpt>
      <trkpt lat="45.2879" lon="5.5631">
        <ele>191.61786</ele>
        <time>2022-06-30T08:09:37Z</time>
      </trkpt>
      <trkpt lat="45.28791" lon="5.56365">
        <ele>191.50648</ele>
        <time>2022-06-30T08:09:47Z</time>
      </trkpt>
      <trkpt lat="45.28799" lon="5.56365">
        <ele>191.75574</ele>
        <time>2022-06-30T08:09:57Z</time>
      </trkpt>
      <trkpt lat="45.28827" lon="5.5632">
        <ele>190.75345</ele>
        <time>2022-06-30T08:10:07Z</time>
      </trkpt>
      <trkpt lat="45.28841" lon="5.56336">
        <ele>190.85951</ele>
        <time>2022-06-30T08:10:17Z</time>
      </trkpt>
      <trkpt lat="45.28833" lon="5.56328">
        <ele>191.62315</ele>
        <time>2022-06-30T08:10:27Z</time>
      </trkpt>
      <trkpt lat="45.28816" lon="5.56332">
        <ele>191.96785</ele>
        <time>2022-06-30T08:10:37Z</time>
      </trkpt>
      <trkpt lat="45.28798" lon="5.56401">
        <ele>192.64662</ele>
        <time>2022-06-30T08:10:47Z</time>
      </trkpt>
      <trkpt lat="45.28813" lon="5.56482">
        <ele>192.97011</ele>
        <time>2022-06-30T08:10:57Z</time>
      </trkpt>
      <trkpt lat="45.28835" lon="5.56563">
        <ele>193.37845</ele>
        <time>2022-06-30T08:11:07Z</time>
      </trkpt>
      <trkpt lat="45.28857" lon="5.56645">
        <ele>192.63072</ele>
        <time>2022-06-30T08:11:17Z</time>
      </trkpt>
      <trkpt lat="45.28898" lon="5.56731">
        <ele>192.87465</ele>
        <time>2022-06-30T08:11:27Z</time>
      </trkpt>
      <trkpt lat="45.28931" lon="5.56818">
        <ele>192.36557</ele>
        <time>2022-06-30T08:11:37Z</time>
      </trkpt>
      <trkpt lat="45.28946" lon="5.56905">
        <ele>193.98299</ele>
        <time>2022-06-30T08:11:47Z</time>
      </trkpt>
      <trkpt lat="45.2897" lon="5.56976">
        <ele>192.65723</ele>
        <time>2022-06-30T08:11:57Z</time>
      </trkpt>
      <trkpt lat="45.28996" lon="5.57065">
        <ele>192.7792</ele>
        <time>2022-06-30T08:12:07Z</time>
      </trkpt>
      <trkpt lat="45.29035" lon="5.57155">
        <ele>193.00192</ele>
        <time>2022-06-30T08:12:17Z</time>
      </trkpt>
      <trkpt lat="45.29057" lon="5.57238">
        <ele>193.29889</ele>
        <time>2022-06-30T08:12:27Z</time>
      </trkpt>
      <trkpt lat="45.29086" lon="5.57333">
        <ele>192.51405</ele>
        <time>2022-06-30T08:12:37Z</time>
      </trkpt>
      <trkpt lat="45.2909" lon="5.57416">
        <ele>192.70497</ele>
        <time>2022-06-30T08:12:47Z</time>
      </trkpt>
      <trkpt lat="45.29133" lon="5.57494">
        <ele>193.09209</ele>
        <time>2022-06-30T08:12:57Z</time>
      </trkpt>
      <trkpt lat="45.2915" lon="5.57575">
        <ele>192.83223</ele>
        <time>2022-06-30T08:13:07Z</time>
      </trkpt>
      <trkpt lat="45.29175" lon="5.57654">
        <ele>195.17616</ele>
        <time>2022-06-30T08:13:17Z</time>
      </trkpt>
      <trkpt lat="45.29202" lon="5.57729">
        <ele>196.1572</ele>
        <time>2022-06-30T08:13:27Z</time>
      </trkpt>
      <trkpt lat="45.29212" lon="5.57795">
        <ele>198.40036</ele>
        <time>2022-06-30T08:13:37Z</time>
      </trkpt>
      <trkpt lat="45.29211" lon="5.57869">
        <ele>200.0761</ele>
        <time>2022-06-30T08:13:47Z</time>
      </trkpt>
      <trkpt lat="45.29254" lon="5.5793">
        <ele>201.44957</ele>
        <time>2022-06-30T08:13:57Z</time>
      </trkpt>
      <trkpt lat="45.29278" lon="5.57973">
        <ele>202.81245</ele>
        <time>2022-06-30T08:14:07Z</time>
      </trkpt>
      <trkpt lat="45.29274" lon="5.58054">
        <ele>204.07985</ele>
        <time>2022-06-30T08:14:17Z</time>
      </trkpt>
      <trkpt lat="45.29299" lon="5.58124">
        <ele>206.10559</ele>
        <time>2022-06-30T08:14:27Z</time>
      </trkpt>
      <trkpt lat="45.2931" lon="5.58195">
        <ele>207.11316</ele>
        <time>2022-06-30T08:14:37Z</time>
      </trkpt>
      <trkpt lat="45.29319" lon="5.58266">
        <ele>207.9351</ele>
        <time>2022-06-30T08:14:47Z</time>
      </trkpt>
      <trkpt lat="45.2931" lon="5.58337">
        <ele>208.78358</ele>
        <time>2022-06-30T08:14:57Z</time>
      </trkpt>
      <trkpt lat="45.29318" lon="5.584">
        <ele>209.99268</ele>
        <time>2022-06-30T08:15:07Z</time>
      </trkpt>
      <trkpt lat="45.29319" lon="5.58474">
        <ele>210.12524</ele>
        <time>2022-06-30T08:15:17Z</time>
      </trkpt>
      <trkpt lat="45.29329" lon="5.58559">
        <ele>210.69798</ele>
        <time>2022-06-30T08:15:27Z</time>
      </trkpt>
      <trkpt lat="45.29324" lon="5.58648">
        <ele>210.19948</ele>
        <time>2022-06-30T08:15:37Z</time>
      </trkpt>
      <trkpt lat="45.29348" lon="5.58745">
        <ele>209.30858</ele>
        <time>2022-06-30T08:15:47Z</time>
      </trkpt>
      <trkpt lat="45.29408" lon="5.58849">
        <ele>206.54044</ele>
        <time>2022-06-30T08:15:57Z</time>
      </trkpt>
      <trkpt lat="45.2944" lon="5.58947">
        <ele>207.12375</ele>
        <time>2022-06-30T08:16:07Z</time>
      </trkpt>
      <trkpt lat="45.29486" lon="5.59032">
        <ele>205.13515</ele>
        <time>2022-06-30T08:16:17Z</time>
      </trkpt>
      <trkpt lat="45.29553" lon="5.59111">
        <ele>202.79123</ele>
        <time>2022-06-30T08:16:27Z</time>
      </trkpt>
      <trkpt lat="45.29586" lon="5.59187">
        <ele>202.17078</ele>
        <time>2022-06-30T08:16:37Z</time>
      </trkpt>
      <trkpt lat="45.29616" lon="5.59241">
        <ele>203.59198</ele>
        <time>2022-06-30T08:16:47Z</time>
      </trkpt>
      <trkpt lat="45.29658" lon="5.5931">
        <ele>202.7329</ele>
        <time>2022-06-30T08:16:57Z</time>
      </trkpt>
      <trkpt lat="45.29712" lon="5.59398">
        <ele>203.89955</ele>
        <time>2022-06-30T08:17:07Z</time>
      </trkpt>
      <trkpt lat="45.29718" lon="5.59465">
        <ele>204.14348</ele>
        <time>2022-06-30T08:17:17Z</time>
      </trkpt>
      <trkpt lat="45.29741" lon="5.59499">
        <ele>203.62378</ele>
        <time>2022-06-30T08:17:27Z</time>
      </trkpt>
      <trkpt lat="45.298" lon="5.59617">
        <ele>203.20486</ele>
        <time>2022-06-30T08:17:37Z</time>
      </trkpt>
      <trkpt lat="45.29848" lon="5.5966">
        <ele>202.45183</ele>
        <time>2022-06-30T08:17:47Z</time>
      </trkpt>
      <trkpt lat="45.29914" lon="5.59721">
        <ele>202.43063</ele>
        <time>2022-06-30T08:17:57Z</time>
      </trkpt>
      <trkpt lat="45.29954" lon="5.59787">
        <ele>201.27457</ele>
        <time>2022-06-30T08:18:07Z</time>
      </trkpt>
      <trkpt lat="45.29982" lon="5.59854">
        <ele>201.23215</ele>
        <time>2022-06-30T08:18:17Z</time>
      </trkpt>
      <trkpt lat="45.30033" lon="5.59939">
        <ele>199.63596</ele>
        <time>2022-06-30T08:18:27Z</time>
      </trkpt>
      <trkpt lat="45.30075" lon="5.60005">
        <ele>199.87457</ele>
        <time>2022-06-30T08:18:37Z</time>
      </trkpt>
      <trkpt lat="45.30113" lon="5.60071">
        <ele>198.9996</ele>
        <time>2022-06-30T08:18:47Z</time>
      </trkpt>
      <trkpt lat="45.30137" lon="5.60166">
        <ele>199.69958</ele>
        <time>2022-06-30T08:18:57Z</time>
      </trkpt>
      <trkpt lat="45.3013" lon="5.60257">
        <ele>198.90414</ele>
        <time>2022-06-30T08:19:07Z</time>
      </trkpt>
      <trkpt lat="45.3012" lon="5.60343">
        <ele>200.09201</ele>
        <time>2022-06-30T08:19:17Z</time>
      </trkpt>
      <trkpt lat="45.30101" lon="5.6043">
        <ele>200.91397</ele>
        <time>2022-06-30T08:19:27Z</time>
      </trkpt>
      <trkpt lat="45.30079" lon="5.60487">
        <ele>201.04123</ele>
        <time>2022-06-30T08:19:37Z</time>
      </trkpt>
      <trkpt lat="45.30043" lon="5.60541">
        <ele>201.05185</ele>
        <time>2022-06-30T08:19:47Z</time>
      </trkpt>
      <trkpt lat="45.30004" lon="5.60606">
        <ele>202.28215</ele>
        <time>2022-06-30T08:19:57Z</time>
      </trkpt>
      <trkpt lat="45.29976" lon="5.60655">
        <ele>201.317</ele>
        <time>2022-06-30T08:20:07Z</time>
      </trkpt>
      <trkpt lat="45.29942" lon="5.60706">
        <ele>202.2344</ele>
        <time>2022-06-30T08:20:17Z</time>
      </trkpt>
      <trkpt lat="45.29902" lon="5.60769">
        <ele>202.65865</ele>
        <time>2022-06-30T08:20:27Z</time>
      </trkpt>
      <trkpt lat="45.29868" lon="5.60817">
        <ele>202.09123</ele>
        <time>2022-06-30T08:20:37Z</time>
      </trkpt>
      <trkpt lat="45.29835" lon="5.60868">
        <ele>202.40941</ele>
        <time>2022-06-30T08:20:47Z</time>
      </trkpt>
      <trkpt lat="45.29798" lon="5.60938">
        <ele>202.76471</ele>
        <time>2022-06-30T08:20:57Z</time>
      </trkpt>
      <trkpt lat="45.29761" lon="5.60994">
        <ele>202.58441</ele>
        <time>2022-06-30T08:21:07Z</time>
      </trkpt>
      <trkpt lat="45.29713" lon="5.61065">
        <ele>202.51547</ele>
        <time>2022-06-30T08:21:17Z</time>
      </trkpt>
      <trkpt lat="45.29667" lon="5.61142">
        <ele>202.31395</ele>
        <time>2022-06-30T08:21:27Z</time>
      </trkpt>
      <trkpt lat="45.29629" lon="5.61205">
        <ele>202.29805</ele>
        <time>2022-06-30T08:21:37Z</time>
      </trkpt>
      <trkpt lat="45.29586" lon="5.61283">
        <ele>202.26624</ele>
        <time>2022-06-30T08:21:47Z</time>
      </trkpt>
      <trkpt lat="45.29531" lon="5.61357">
        <ele>201.44957</ele>
        <time>2022-06-30T08:21:57Z</time>
      </trkpt>
      <trkpt lat="45.29475" lon="5.61367">
        <ele>202.66396</ele>
        <time>2022-06-30T08:22:07Z</time>
      </trkpt>
      <trkpt lat="45.29448" lon="5.61381">
        <ele>201.59276</ele>
        <time>2022-06-30T08:22:17Z</time>
      </trkpt>
      <trkpt lat="45.29428" lon="5.61381">
        <ele>201.42836</ele>
        <time>2022-06-30T08:22:27Z</time>
      </trkpt>
      <trkpt lat="45.29403" lon="5.61388">
        <ele>200.7708</ele>
        <time>2022-06-30T08:22:37Z</time>
      </trkpt>
      <trkpt lat="45.29401" lon="5.6139">
        <ele>200.0602</ele>
        <time>2022-06-30T08:22:47Z</time>
      </trkpt>
      <trkpt lat="45.29419" lon="5.61379">
        <ele>201.03593</ele>
        <time>2022-06-30T08:23:32Z</time>
      </trkpt>
      <trkpt lat="45.29443" lon="5.61382">
        <ele>201.7147</ele>
        <time>2022-06-30T08:23:42Z</time>
      </trkpt>
      <trkpt lat="45.29423" lon="5.61411">
        <ele>202.25034</ele>
        <time>2022-06-30T08:23:52Z</time>
      </trkpt>
      <trkpt lat="45.29376" lon="5.61441">
        <ele>200.48973</ele>
        <time>2022-06-30T08:24:02Z</time>
      </trkpt>
      <trkpt lat="45.29327" lon="5.61464">
        <ele>201.1473</ele>
        <time>2022-06-30T08:24:12Z</time>
      </trkpt>
      <trkpt lat="45.29268" lon="5.61493">
        <ele>199.99655</ele>
        <time>2022-06-30T08:24:22Z</time>
      </trkpt>
      <trkpt lat="45.2921" lon="5.61514">
        <ele>200.83444</ele>
        <time>2022-06-30T08:24:32Z</time>
      </trkpt>
      <trkpt lat="45.29151" lon="5.61538">
        <ele>201.24806</ele>
        <time>2022-06-30T08:24:42Z</time>
      </trkpt>
      <trkpt lat="45.29092" lon="5.61542">
        <ele>201.57686</ele>
        <time>2022-06-30T08:24:52Z</time>
      </trkpt>
      <trkpt lat="45.29037" lon="5.61559">
        <ele>201.06245</ele>
        <time>2022-06-30T08:25:02Z</time>
      </trkpt>
      <trkpt lat="45.28974" lon="5.61577">
        <ele>201.37004</ele>
        <time>2022-06-30T08:25:12Z</time>
      </trkpt>
      <trkpt lat="45.28915" lon="5.61587">
        <ele>201.49199</ele>
        <time>2022-06-30T08:25:22Z</time>
      </trkpt>
      <trkpt lat="45.28854" lon="5.61599">
        <ele>201.43898</ele>
        <time>2022-06-30T08:25:32Z</time>
      </trkpt>
      <trkpt lat="45.28791" lon="5.61613">
        <ele>200.7655</ele>
        <time>2022-06-30T08:25:42Z</time>
      </trkpt>
      <trkpt lat="45.28736" lon="5.61617">
        <ele>200.94049</ele>
        <time>2022-06-30T08:25:52Z</time>
      </trkpt>
      <trkpt lat="45.28729" lon="5.61552">
        <ele>200.50034</ele>
        <time>2022-06-30T08:26:02Z</time>
      </trkpt>
      <trkpt lat="45.28739" lon="5.61486">
        <ele>203.35864</ele>
        <time>2022-06-30T08:26:12Z</time>
      </trkpt>
      <trkpt lat="45.28723" lon="5.61427">
        <ele>206.02074</ele>
        <time>2022-06-30T08:26:22Z</time>
      </trkpt>
      <trkpt lat="45.287" lon="5.61426">
        <ele>207.56921</ele>
        <time>2022-06-30T08:26:32Z</time>
      </trkpt>
      <trkpt lat="45.28674" lon="5.61417">
        <ele>210.06693</ele>
        <time>2022-06-30T08:26:42Z</time>
      </trkpt>
      <trkpt lat="45.28654" lon="5.6141">
        <ele>212.44266</ele>
        <time>2022-06-30T08:26:52Z</time>
      </trkpt>
      <trkpt lat="45.28638" lon="5.61408">
        <ele>212.99417</ele>
        <time>2022-06-30T08:27:04Z</time>
      </trkpt>
      <trkpt lat="45.28595" lon="5.61407">
        <ele>216.51534</ele>
        <time>2022-06-30T08:27:17Z</time>
      </trkpt>
      <trkpt lat="45.28576" lon="5.61387">
        <ele>218.84865</ele>
        <time>2022-06-30T08:27:27Z</time>
      </trkpt>
      <trkpt lat="45.28561" lon="5.61366">
        <ele>220.51907</ele>
        <time>2022-06-30T08:27:37Z</time>
      </trkpt>
      <trkpt lat="45.28544" lon="5.61346">
        <ele>222.97968</ele>
        <time>2022-06-30T08:27:47Z</time>
      </trkpt>
      <trkpt lat="45.28529" lon="5.61325">
        <ele>225.42435</ele>
        <time>2022-06-30T08:27:57Z</time>
      </trkpt>
      <trkpt lat="45.28503" lon="5.61284">
        <ele>227.11069</ele>
        <time>2022-06-30T08:28:07Z</time>
      </trkpt>
      <trkpt lat="45.28489" lon="5.61283">
        <ele>228.62204</ele>
        <time>2022-06-30T08:28:17Z</time>
      </trkpt>
      <trkpt lat="45.28465" lon="5.61271">
        <ele>230.3243</ele>
        <time>2022-06-30T08:28:27Z</time>
      </trkpt>
      <trkpt lat="45.28447" lon="5.61261">
        <ele>231.26292</ele>
        <time>2022-06-30T08:28:37Z</time>
      </trkpt>
      <trkpt lat="45.2844" lon="5.61261">
        <ele>231.16748</ele>
        <time>2022-06-30T08:28:47Z</time>
      </trkpt>
      <trkpt lat="45.28523" lon="5.61318">
        <ele>225.01602</ele>
        <time>2022-06-30T08:31:41Z</time>
      </trkpt>
      <trkpt lat="45.28561" lon="5.61379">
        <ele>219.94637</ele>
        <time>2022-06-30T08:31:51Z</time>
      </trkpt>
      <trkpt lat="45.28495" lon="5.61372">
        <ele>214.63808</ele>
        <time>2022-06-30T08:32:01Z</time>
      </trkpt>
      <trkpt lat="45.28413" lon="5.61393">
        <ele>208.33815</ele>
        <time>2022-06-30T08:32:11Z</time>
      </trkpt>
      <trkpt lat="45.28371" lon="5.61429">
        <ele>205.09271</ele>
        <time>2022-06-30T08:32:21Z</time>
      </trkpt>
      <trkpt lat="45.28317" lon="5.61495">
        <ele>201.3064</ele>
        <time>2022-06-30T08:32:31Z</time>
      </trkpt>
      <trkpt lat="45.28278" lon="5.61552">
        <ele>199.60944</ele>
        <time>2022-06-30T08:32:41Z</time>
      </trkpt>
      <trkpt lat="45.28243" lon="5.61613">
        <ele>199.04202</ele>
        <time>2022-06-30T08:32:51Z</time>
      </trkpt>
      <trkpt lat="45.28205" lon="5.61666">
        <ele>201.4867</ele>
        <time>2022-06-30T08:33:01Z</time>
      </trkpt>
      <trkpt lat="45.28162" lon="5.61674">
        <ele>199.82156</ele>
        <time>2022-06-30T08:33:11Z</time>
      </trkpt>
      <trkpt lat="45.28107" lon="5.61689">
        <ele>200.91928</ele>
        <time>2022-06-30T08:33:21Z</time>
      </trkpt>
      <trkpt lat="45.28073" lon="5.61672">
        <ele>203.13593</ele>
        <time>2022-06-30T08:33:31Z</time>
      </trkpt>
      <trkpt lat="45.28034" lon="5.61647">
        <ele>204.26546</ele>
        <time>2022-06-30T08:33:41Z</time>
      </trkpt>
      <trkpt lat="45.27984" lon="5.61666">
        <ele>203.07228</ele>
        <time>2022-06-30T08:33:51Z</time>
      </trkpt>
      <trkpt lat="45.27922" lon="5.61709">
        <ele>200.0867</ele>
        <time>2022-06-30T08:34:01Z</time>
      </trkpt>
      <trkpt lat="45.27883" lon="5.61681">
        <ele>203.92076</ele>
        <time>2022-06-30T08:34:11Z</time>
      </trkpt>
      <trkpt lat="45.27873" lon="5.61667">
        <ele>205.80862</ele>
        <time>2022-06-30T08:34:21Z</time>
      </trkpt>
      <trkpt lat="45.27869" lon="5.6164">
        <ele>208.88965</ele>
        <time>2022-06-30T08:34:31Z</time>
      </trkpt>
      <trkpt lat="45.27865" lon="5.61605">
        <ele>210.5601</ele>
        <time>2022-06-30T08:34:41Z</time>
      </trkpt>
      <trkpt lat="45.2785" lon="5.61606">
        <ele>212.7078</ele>
        <time>2022-06-30T08:34:51Z</time>
      </trkpt>
      <trkpt lat="45.27829" lon="5.61609">
        <ele>217.11458</ele>
        <time>2022-06-30T08:35:01Z</time>
      </trkpt>
      <trkpt lat="45.27814" lon="5.61589">
        <ele>218.16457</ele>
        <time>2022-06-30T08:35:11Z</time>
      </trkpt>
      <trkpt lat="45.27782" lon="5.61575">
        <ele>217.32669</ele>
        <time>2022-06-30T08:35:21Z</time>
      </trkpt>
      <trkpt lat="45.27735" lon="5.61578">
        <ele>219.40016</ele>
        <time>2022-06-30T08:35:31Z</time>
      </trkpt>
      <trkpt lat="45.27691" lon="5.61574">
        <ele>220.47136</ele>
        <time>2022-06-30T08:35:41Z</time>
      </trkpt>
      <trkpt lat="45.27655" lon="5.61559">
        <ele>221.4418</ele>
        <time>2022-06-30T08:35:51Z</time>
      </trkpt>
      <trkpt lat="45.27628" lon="5.61533">
        <ele>222.5395</ele>
        <time>2022-06-30T08:36:01Z</time>
      </trkpt>
      <trkpt lat="45.27595" lon="5.61508">
        <ele>223.51527</ele>
        <time>2022-06-30T08:36:11Z</time>
      </trkpt>
      <trkpt lat="45.27552" lon="5.61504">
        <ele>223.48875</ele>
        <time>2022-06-30T08:36:21Z</time>
      </trkpt>
      <trkpt lat="45.27519" lon="5.61505">
        <ele>223.97662</ele>
        <time>2022-06-30T08:36:31Z</time>
      </trkpt>
      <trkpt lat="45.27486" lon="5.61522">
        <ele>224.68193</ele>
        <time>2022-06-30T08:36:41Z</time>
      </trkpt>
      <trkpt lat="45.27452" lon="5.61533">
        <ele>226.0554</ele>
        <time>2022-06-30T08:36:51Z</time>
      </trkpt>
      <trkpt lat="45.27409" lon="5.61526">
        <ele>226.15086</ele>
        <time>2022-06-30T08:37:01Z</time>
      </trkpt>
      <trkpt lat="45.27368" lon="5.61506">
        <ele>225.95464</ele>
        <time>2022-06-30T08:37:11Z</time>
      </trkpt>
      <trkpt lat="45.27338" lon="5.61505">
        <ele>223.97133</ele>
        <time>2022-06-30T08:37:21Z</time>
      </trkpt>
      <trkpt lat="45.27301" lon="5.61562">
        <ele>224.81981</ele>
        <time>2022-06-30T08:37:31Z</time>
      </trkpt>
      <trkpt lat="45.2726" lon="5.61552">
        <ele>226.46904</ele>
        <time>2022-06-30T08:37:41Z</time>
      </trkpt>
      <trkpt lat="45.2723" lon="5.61543">
        <ele>227.78416</ele>
        <time>2022-06-30T08:37:51Z</time>
      </trkpt>
      <trkpt lat="45.27186" lon="5.61578">
        <ele>220.68347</ele>
        <time>2022-06-30T08:38:01Z</time>
      </trkpt>
      <trkpt lat="45.27123" lon="5.61596">
        <ele>214.19263</ele>
        <time>2022-06-30T08:38:11Z</time>
      </trkpt>
      <trkpt lat="45.27046" lon="5.61657">
        <ele>206.50331</ele>
        <time>2022-06-30T08:38:21Z</time>
      </trkpt>
      <trkpt lat="45.26997" lon="5.61727">
        <ele>203.92607</ele>
        <time>2022-06-30T08:38:31Z</time>
      </trkpt>
      <trkpt lat="45.26972" lon="5.61809">
        <ele>202.51547</ele>
        <time>2022-06-30T08:38:41Z</time>
      </trkpt>
      <trkpt lat="45.2692" lon="5.61825">
        <ele>201.72533</ele>
        <time>2022-06-30T08:38:51Z</time>
      </trkpt>
      <trkpt lat="45.26867" lon="5.61877">
        <ele>201.62987</ele>
        <time>2022-06-30T08:39:01Z</time>
      </trkpt>
      <trkpt lat="45.26813" lon="5.61939">
        <ele>202.0064</ele>
        <time>2022-06-30T08:39:11Z</time>
      </trkpt>
      <trkpt lat="45.26802" lon="5.61994">
        <ele>202.31395</ele>
        <time>2022-06-30T08:39:21Z</time>
      </trkpt>
      <trkpt lat="45.26808" lon="5.62047">
        <ele>201.88441</ele>
        <time>2022-06-30T08:39:31Z</time>
      </trkpt>
      <trkpt lat="45.26825" lon="5.62108">
        <ele>202.16547</ele>
        <time>2022-06-30T08:39:41Z</time>
      </trkpt>
      <trkpt lat="45.26798" lon="5.6216">
        <ele>203.59198</ele>
        <time>2022-06-30T08:39:51Z</time>
      </trkpt>
      <trkpt lat="45.26774" lon="5.62181">
        <ele>204.55182</ele>
        <time>2022-06-30T08:40:01Z</time>
      </trkpt>
      <trkpt lat="45.26744" lon="5.6221">
        <ele>203.45941</ele>
        <time>2022-06-30T08:40:11Z</time>
      </trkpt>
      <trkpt lat="45.26677" lon="5.62291">
        <ele>204.65788</ele>
        <time>2022-06-30T08:40:21Z</time>
      </trkpt>
      <trkpt lat="45.26633" lon="5.62326">
        <ele>204.40334</ele>
        <time>2022-06-30T08:40:31Z</time>
      </trkpt>
      <trkpt lat="45.26579" lon="5.62382">
        <ele>203.76166</ele>
        <time>2022-06-30T08:40:41Z</time>
      </trkpt>
      <trkpt lat="45.26527" lon="5.62418">
        <ele>203.3056</ele>
        <time>2022-06-30T08:40:51Z</time>
      </trkpt>
      <trkpt lat="45.2647" lon="5.62472">
        <ele>204.3397</ele>
        <time>2022-06-30T08:41:01Z</time>
      </trkpt>
      <trkpt lat="45.26422" lon="5.6252">
        <ele>203.36395</ele>
        <time>2022-06-30T08:41:11Z</time>
      </trkpt>
      <trkpt lat="45.26371" lon="5.62577">
        <ele>204.41924</ele>
        <time>2022-06-30T08:41:21Z</time>
      </trkpt>
      <trkpt lat="45.26322" lon="5.62637">
        <ele>204.1859</ele>
        <time>2022-06-30T08:41:31Z</time>
      </trkpt>
      <trkpt lat="45.26275" lon="5.62686">
        <ele>204.97076</ele>
        <time>2022-06-30T08:41:41Z</time>
      </trkpt>
      <trkpt lat="45.26226" lon="5.62748">
        <ele>205.10863</ele>
        <time>2022-06-30T08:41:51Z</time>
      </trkpt>
      <trkpt lat="45.26177" lon="5.62808">
        <ele>205.0503</ele>
        <time>2022-06-30T08:42:01Z</time>
      </trkpt>
      <trkpt lat="45.26131" lon="5.6286">
        <ele>203.50183</ele>
        <time>2022-06-30T08:42:11Z</time>
      </trkpt>
      <trkpt lat="45.26078" lon="5.62927">
        <ele>204.5094</ele>
        <time>2022-06-30T08:42:21Z</time>
      </trkpt>
      <trkpt lat="45.26024" lon="5.62992">
        <ele>205.07681</ele>
        <time>2022-06-30T08:42:31Z</time>
      </trkpt>
      <trkpt lat="45.25982" lon="5.63053">
        <ele>205.71318</ele>
        <time>2022-06-30T08:42:41Z</time>
      </trkpt>
      <trkpt lat="45.25934" lon="5.63124">
        <ele>205.2465</ele>
        <time>2022-06-30T08:42:51Z</time>
      </trkpt>
      <trkpt lat="45.25888" lon="5.63171">
        <ele>204.80637</ele>
        <time>2022-06-30T08:43:01Z</time>
      </trkpt>
      <trkpt lat="45.2584" lon="5.63218">
        <ele>204.04272</ele>
        <time>2022-06-30T08:43:11Z</time>
      </trkpt>
      <trkpt lat="45.25793" lon="5.63281">
        <ele>205.29955</ele>
        <time>2022-06-30T08:43:21Z</time>
      </trkpt>
      <trkpt lat="45.25743" lon="5.63349">
        <ele>206.36543</ele>
        <time>2022-06-30T08:43:31Z</time>
      </trkpt>
      <trkpt lat="45.25694" lon="5.63414">
        <ele>205.90938</ele>
        <time>2022-06-30T08:43:41Z</time>
      </trkpt>
      <trkpt lat="45.25647" lon="5.63467">
        <ele>204.53061</ele>
        <time>2022-06-30T08:43:51Z</time>
      </trkpt>
      <trkpt lat="45.25602" lon="5.63524">
        <ele>205.81392</ele>
        <time>2022-06-30T08:44:01Z</time>
      </trkpt>
      <trkpt lat="45.25551" lon="5.6359">
        <ele>205.56468</ele>
        <time>2022-06-30T08:44:11Z</time>
      </trkpt>
      <trkpt lat="45.25507" lon="5.63637">
        <ele>206.57225</ele>
        <time>2022-06-30T08:44:21Z</time>
      </trkpt>
      <trkpt lat="45.25493" lon="5.63603">
        <ele>202.3776</ele>
        <time>2022-06-30T08:44:31Z</time>
      </trkpt>
      <trkpt lat="45.25483" lon="5.63626">
        <ele>202.60562</ele>
        <time>2022-06-30T08:44:41Z</time>
      </trkpt>
      <trkpt lat="45.2547" lon="5.63697">
        <ele>202.93971</ele>
        <time>2022-06-30T08:44:51Z</time>
      </trkpt>
      <trkpt lat="45.2544" lon="5.63765">
        <ele>202.51547</ele>
        <time>2022-06-30T08:45:01Z</time>
      </trkpt>
      <trkpt lat="45.25413" lon="5.63835">
        <ele>200.37308</ele>
        <time>2022-06-30T08:45:11Z</time>
      </trkpt>
      <trkpt lat="45.2538" lon="5.63907">
        <ele>202.07533</ele>
        <time>2022-06-30T08:45:21Z</time>
      </trkpt>
      <trkpt lat="45.25352" lon="5.63966">
        <ele>201.39124</ele>
        <time>2022-06-30T08:45:31Z</time>
      </trkpt>
      <trkpt lat="45.25318" lon="5.64039">
        <ele>199.98596</ele>
        <time>2022-06-30T08:45:41Z</time>
      </trkpt>
      <trkpt lat="45.25279" lon="5.6411">
        <ele>199.93822</ele>
        <time>2022-06-30T08:45:51Z</time>
      </trkpt>
      <trkpt lat="45.25235" lon="5.64167">
        <ele>200.53746</ele>
        <time>2022-06-30T08:46:01Z</time>
      </trkpt>
      <trkpt lat="45.25193" lon="5.64217">
        <ele>199.30716</ele>
        <time>2022-06-30T08:46:11Z</time>
      </trkpt>
      <trkpt lat="45.25147" lon="5.64275">
        <ele>200.52686</ele>
        <time>2022-06-30T08:46:21Z</time>
      </trkpt>
      <trkpt lat="45.25104" lon="5.64342">
        <ele>200.55338</ele>
        <time>2022-06-30T08:46:31Z</time>
      </trkpt>
      <trkpt lat="45.25062" lon="5.64393">
        <ele>202.23972</ele>
        <time>2022-06-30T08:46:41Z</time>
      </trkpt>
      <trkpt lat="45.25023" lon="5.64437">
        <ele>200.98291</ele>
        <time>2022-06-30T08:46:51Z</time>
      </trkpt>
      <trkpt lat="45.24984" lon="5.64485">
        <ele>200.6064</ele>
        <time>2022-06-30T08:47:01Z</time>
      </trkpt>
      <trkpt lat="45.24945" lon="5.64551">
        <ele>201.8791</ele>
        <time>2022-06-30T08:47:11Z</time>
      </trkpt>
      <trkpt lat="45.2491" lon="5.64597">
        <ele>200.17686</ele>
        <time>2022-06-30T08:47:21Z</time>
      </trkpt>
      <trkpt lat="45.24873" lon="5.64647">
        <ele>201.76245</ele>
        <time>2022-06-30T08:47:31Z</time>
      </trkpt>
      <trkpt lat="45.2484" lon="5.64692">
        <ele>201.49199</ele>
        <time>2022-06-30T08:47:41Z</time>
      </trkpt>
      <trkpt lat="45.24796" lon="5.6473">
        <ele>202.81775</ele>
        <time>2022-06-30T08:47:51Z</time>
      </trkpt>
      <trkpt lat="45.24764" lon="5.64728">
        <ele>201.3064</ele>
        <time>2022-06-30T08:48:01Z</time>
      </trkpt>
      <trkpt lat="45.24741" lon="5.6465">
        <ele>201.72533</ele>
        <time>2022-06-30T08:48:11Z</time>
      </trkpt>
      <trkpt lat="45.24721" lon="5.64564">
        <ele>200.62761</ele>
        <time>2022-06-30T08:48:21Z</time>
      </trkpt>
      <trkpt lat="45.24701" lon="5.64481">
        <ele>201.90562</ele>
        <time>2022-06-30T08:48:31Z</time>
      </trkpt>
      <trkpt lat="45.24685" lon="5.64397">
        <ele>201.3276</ele>
        <time>2022-06-30T08:48:41Z</time>
      </trkpt>
      <trkpt lat="45.24667" lon="5.64321">
        <ele>202.77531</ele>
        <time>2022-06-30T08:48:51Z</time>
      </trkpt>
      <trkpt lat="45.24633" lon="5.64227">
        <ele>201.42836</ele>
        <time>2022-06-30T08:49:01Z</time>
      </trkpt>
      <trkpt lat="45.24616" lon="5.64157">
        <ele>202.30334</ele>
        <time>2022-06-30T08:49:11Z</time>
      </trkpt>
      <trkpt lat="45.24594" lon="5.6408">
        <ele>202.90788</ele>
        <time>2022-06-30T08:49:21Z</time>
      </trkpt>
      <trkpt lat="45.24611" lon="5.64013">
        <ele>200.80792</ele>
        <time>2022-06-30T08:49:31Z</time>
      </trkpt>
      <trkpt lat="45.24666" lon="5.63947">
        <ele>201.44957</ele>
        <time>2022-06-30T08:49:41Z</time>
      </trkpt>
      <trkpt lat="45.24713" lon="5.63884">
        <ele>202.65335</ele>
        <time>2022-06-30T08:49:51Z</time>
      </trkpt>
      <trkpt lat="45.2476" lon="5.63825">
        <ele>202.53139</ele>
        <time>2022-06-30T08:50:01Z</time>
      </trkpt>
      <trkpt lat="45.24798" lon="5.63769">
        <ele>201.80487</ele>
        <time>2022-06-30T08:50:11Z</time>
      </trkpt>
      <trkpt lat="45.2484" lon="5.63682">
        <ele>201.08897</ele>
        <time>2022-06-30T08:50:21Z</time>
      </trkpt>
      <trkpt lat="45.24874" lon="5.63617">
        <ele>200.7761</ele>
        <time>2022-06-30T08:50:31Z</time>
      </trkpt>
      <trkpt lat="45.24878" lon="5.63503">
        <ele>199.7261</ele>
        <time>2022-06-30T08:50:41Z</time>
      </trkpt>
      <trkpt lat="45.24892" lon="5.63417">
        <ele>200.55867</ele>
        <time>2022-06-30T08:50:51Z</time>
      </trkpt>
      <trkpt lat="45.24959" lon="5.63346">
        <ele>200.49504</ele>
        <time>2022-06-30T08:51:01Z</time>
      </trkpt>
      <trkpt lat="45.24964" lon="5.63272">
        <ele>201.00943</ele>
        <time>2022-06-30T08:51:11Z</time>
      </trkpt>
      <trkpt lat="45.24939" lon="5.63184">
        <ele>199.9117</ele>
        <time>2022-06-30T08:51:21Z</time>
      </trkpt>
      <trkpt lat="45.2497" lon="5.63168">
        <ele>202.04352</ele>
        <time>2022-06-30T08:51:31Z</time>
      </trkpt>
      <trkpt lat="45.24985" lon="5.63119">
        <ele>203.36395</ele>
        <time>2022-06-30T08:51:41Z</time>
      </trkpt>
      <trkpt lat="45.24973" lon="5.63069">
        <ele>205.88817</ele>
        <time>2022-06-30T08:51:51Z</time>
      </trkpt>
      <trkpt lat="45.24944" lon="5.63013">
        <ele>206.61467</ele>
        <time>2022-06-30T08:52:01Z</time>
      </trkpt>
      <trkpt lat="45.24934" lon="5.62996">
        <ele>209.93964</ele>
        <time>2022-06-30T08:52:11Z</time>
      </trkpt>
      <trkpt lat="45.24901" lon="5.63006">
        <ele>211.58887</ele>
        <time>2022-06-30T08:52:21Z</time>
      </trkpt>
      <trkpt lat="45.24883" lon="5.62971">
        <ele>215.76762</ele>
        <time>2022-06-30T08:52:31Z</time>
      </trkpt>
      <trkpt lat="45.2486" lon="5.62941">
        <ele>218.45093</ele>
        <time>2022-06-30T08:52:41Z</time>
      </trkpt>
      <trkpt lat="45.24831" lon="5.6296">
        <ele>218.56758</ele>
        <time>2022-06-30T08:52:51Z</time>
      </trkpt>
      <trkpt lat="45.24787" lon="5.62966">
        <ele>219.34712</ele>
        <time>2022-06-30T08:53:01Z</time>
      </trkpt>
      <trkpt lat="45.24733" lon="5.62986">
        <ele>220.61453</ele>
        <time>2022-06-30T08:53:11Z</time>
      </trkpt>
      <trkpt lat="45.24683" lon="5.62989">
        <ele>219.8244</ele>
        <time>2022-06-30T08:53:21Z</time>
      </trkpt>
      <trkpt lat="45.24636" lon="5.62995">
        <ele>221.22438</ele>
        <time>2022-06-30T08:53:31Z</time>
      </trkpt>
      <trkpt lat="45.24591" lon="5.62994">
        <ele>222.18953</ele>
        <time>2022-06-30T08:53:41Z</time>
      </trkpt>
      <trkpt lat="45.24568" lon="5.62975">
        <ele>224.20467</ele>
        <time>2022-06-30T08:53:51Z</time>
      </trkpt>
      <trkpt lat="45.2459" lon="5.62938">
        <ele>225.90692</ele>
        <time>2022-06-30T08:54:01Z</time>
      </trkpt>
      <trkpt lat="45.24608" lon="5.62895">
        <ele>227.21146</ele>
        <time>2022-06-30T08:54:11Z</time>
      </trkpt>
      <trkpt lat="45.24627" lon="5.62855">
        <ele>229.30083</ele>
        <time>2022-06-30T08:54:21Z</time>
      </trkpt>
      <trkpt lat="45.24645" lon="5.62818">
        <ele>231.31596</ele>
        <time>2022-06-30T08:54:31Z</time>
      </trkpt>
      <trkpt lat="45.24661" lon="5.62777">
        <ele>233.62805</ele>
        <time>2022-06-30T08:54:41Z</time>
      </trkpt>
      <trkpt lat="45.24671" lon="5.62749">
        <ele>234.57199</ele>
        <time>2022-06-30T08:54:51Z</time>
      </trkpt>
      <trkpt lat="45.24699" lon="5.6272">
        <ele>235.56364</ele>
        <time>2022-06-30T08:55:01Z</time>
      </trkpt>
      <trkpt lat="45.24733" lon="5.62713">
        <ele>237.32423</ele>
        <time>2022-06-30T08:55:11Z</time>
      </trkpt>
      <trkpt lat="45.24764" lon="5.62694">
        <ele>238.43785</ele>
        <time>2022-06-30T08:55:21Z</time>
      </trkpt>
      <trkpt lat="45.24788" lon="5.62681">
        <ele>236.29546</ele>
        <time>2022-06-30T08:55:31Z</time>
      </trkpt>
      <trkpt lat="45.24807" lon="5.6265">
        <ele>235.00682</ele>
        <time>2022-06-30T08:55:41Z</time>
      </trkpt>
      <trkpt lat="45.24839" lon="5.62643">
        <ele>234.98563</ele>
        <time>2022-06-30T08:55:51Z</time>
      </trkpt>
      <trkpt lat="45.24842" lon="5.62634">
        <ele>235.02805</ele>
        <time>2022-06-30T08:56:04Z</time>
        <extensions>
          <gpxtpx:TrackPointExtension xmlns:gpxtpx="http://www.garmin.com/xmlschemas/TrackPointExtension/v1">
            <gpxtpx:hr>129</gpxtpx:hr>
          </gpxtpx:TrackPointExtension>
        </extensions>
      </trkpt>
    </trkseg>
  </trk>
</gpx>